Observation data for Fort Chadbourne on 11/17/2019      Previous  Date       Current Mesonet Observations  Soil Data  Daily Summary Page  Observations in Plain Language
KCH1 170600Z 13003KT 07/04 A3001 RMK A01 T00720039  RH  079%=      5-min Rain = 0
KCH1 170601Z 13003KT 07/04 A3001 RMK A01 T00720039  RH  079%=      5-min Rain = 0
KCH1 170602Z 13003KT 07/04 A3001 RMK A01 T00720038  RH  079%=      5-min Rain = 0
KCH1 170603Z 13003KT 07/04 A3001 RMK A01 T00720038  RH  079%=      5-min Rain = 0
KCH1 170604Z 13002KT 07/04 A3001 RMK A01 T00710038  RH  079%=      5-min Rain = 0
KCH1 170605Z 13002KT 07/04 A3001 RMK A01 T00710038  RH  079%=      5-min Rain = 0
KCH1 170606Z 12002KT 07/04 A3001 RMK A01 T00710037  RH  079%=      5-min Rain = 0
KCH1 170607Z 12002KT 07/04 A3001 RMK A01 T00700038  RH  080%=      5-min Rain = 0
KCH1 170608Z 11001KT 07/04 A3001 RMK A01 T00700038  RH  080%=      5-min Rain = 0
KCH1 170609Z 10001KT 07/04 A3001 RMK A01 T00700038  RH  080%=      5-min Rain = 0
KCH1 170610Z 09001KT 07/04 A3001 RMK A01 T00700038  RH  080%=      5-min Rain = 0
KCH1 170611Z 07001KT 07/04 A3001 RMK A01 T00690037  RH  080%=      5-min Rain = 0
KCH1 170612Z 06001KT 07/04 A3001 RMK A01 T00680037  RH  081%=      5-min Rain = 0
KCH1 170613Z 05002KT 07/04 A3001 RMK A01 T00680037  RH  081%=      5-min Rain = 0
KCH1 170614Z 06001KT 07/04 A3001 RMK A01 T00680037  RH  081%=      5-min Rain = 0
KCH1 170615Z 05002KT 07/04 A3001 RMK A01 T00680037  RH  081%=      5-min Rain = 0
KCH1 170616Z 06001KT 07/04 A3001 RMK A01 T00670037  RH  081%=      5-min Rain = 0
KCH1 170617Z 05001KT 07/04 A3001 RMK A01 T00670037  RH  081%=      5-min Rain = 0
KCH1 170618Z 05001KT 07/04 A3001 RMK A01 T00670037  RH  081%=      5-min Rain = 0
KCH1 170619Z 05001KT 07/04 A3001 RMK A01 T00660037  RH  081%=      5-min Rain = 0
KCH1 170620Z 06001KT 07/04 A3001 RMK A01 T00660037  RH  082%=      5-min Rain = 0
KCH1 170621Z 07000KT 07/04 A3001 RMK A01 T00660037  RH  082%=      5-min Rain = 0
KCH1 170622Z 07001KT 07/04 A3001 RMK A01 T00660038  RH  082%=      5-min Rain = 0
KCH1 170623Z 07001KT 07/04 A3001 RMK A01 T00670038  RH  082%=      5-min Rain = 0
KCH1 170624Z 07001KT 07/04 A3001 RMK A01 T00670038  RH  082%=      5-min Rain = 0
KCH1 170625Z 08001KT 07/04 A3001 RMK A01 T00670038  RH  082%=      5-min Rain = 0
KCH1 170626Z 08001KT 07/04 A3001 RMK A01 T00670038  RH  081%=      5-min Rain = 0
KCH1 170627Z 07001KT 07/04 A3001 RMK A01 T00680038  RH  081%=      5-min Rain = 0
KCH1 170628Z 07001KT 07/04 A3001 RMK A01 T00680038  RH  081%=      5-min Rain = 0
KCH1 170629Z 08001KT 07/04 A3001 RMK A01 T00680038  RH  081%=      5-min Rain = 0
KCH1 170630Z 07001KT 07/04 A3001 RMK A01 T00680038  RH  081%=      5-min Rain = 0
KCH1 170631Z 06001KT 07/04 A3001 RMK A01 T00680038  RH  081%=      5-min Rain = 0
KCH1 170632Z 09000KT 07/04 A3001 RMK A01 T00680038  RH  081%=      5-min Rain = 0
KCH1 170633Z 08001KT 07/04 A3001 RMK A01 T00680038  RH  081%=      5-min Rain = 0
KCH1 170634Z 07001KT 07/04 A3001 RMK A01 T00680038  RH  081%=      5-min Rain = 0
KCH1 170635Z 07000KT 07/04 A3001 RMK A01 T00680038  RH  081%=      5-min Rain = 0
KCH1 170636Z 07000KT 07/04 A3001 RMK A01 T00680038  RH  081%=      5-min Rain = 0
KCH1 170637Z 07000KT 07/04 A3001 RMK A01 T00680038  RH  081%=      5-min Rain = 0
KCH1 170638Z 00000KT 07/04 A3001 RMK A01 T00690038  RH  081%=      5-min Rain = 0
KCH1 170639Z 08000KT 07/04 A3001 RMK A01 T00690038  RH  081%=      5-min Rain = 0
KCH1 170640Z 10000KT 07/04 A3001 RMK A01 T00690039  RH  081%=      5-min Rain = 0
KCH1 170641Z 14000KT 07/04 A3001 RMK A01 T00690038  RH  081%=      5-min Rain = 0
KCH1 170642Z 13001KT 07/04 A30 RMK A01 T00690038  RH  081%=      5-min Rain = 0
KCH1 170643Z 14001KT 07/04 A30 RMK A01 T00690038  RH  081%=      5-min Rain = 0
KCH1 170644Z 13001KT 07/04 A30 RMK A01 T00690039  RH  081%=      5-min Rain = 0
KCH1 170645Z 14001KT 07/04 A30 RMK A01 T00690038  RH  081%=      5-min Rain = 0
KCH1 170646Z 12001KT 07/04 A30 RMK A01 T00690038  RH  081%=      5-min Rain = 0
KCH1 170647Z 12001KT 07/04 A30 RMK A01 T00690038  RH  081%=      5-min Rain = 0
KCH1 170648Z 12001KT 07/04 A30 RMK A01 T00680038  RH  081%=      5-min Rain = 0
KCH1 170649Z 12001KT 07/04 A30 RMK A01 T00670038  RH  081%=      5-min Rain = 0
KCH1 170650Z 12001KT 07/04 A30 RMK A01 T00670037  RH  082%=      5-min Rain = 0
KCH1 170651Z 13001KT 07/04 A30 RMK A01 T00660038  RH  082%=      5-min Rain = 0
KCH1 170652Z 13001KT 07/04 A3001 RMK A01 T00660037  RH  082%=      5-min Rain = 0
KCH1 170653Z 14002KT 07/04 A3001 RMK A01 T00660037  RH  082%=      5-min Rain = 0
KCH1 170654Z 13001KT 07/04 A3001 RMK A01 T00660038  RH  082%=      5-min Rain = 0
KCH1 170655Z 14001KT 07/04 A3001 RMK A01 T00660038  RH  082%=      5-min Rain = 0
KCH1 170656Z 13001KT 07/04 A3001 RMK A01 T00660038  RH  082%=      5-min Rain = 0
KCH1 170657Z 13001KT 07/04 A3001 RMK A01 T00660038  RH  082%=      5-min Rain = 0
KCH1 170658Z 14001KT 07/04 A3001 RMK A01 T00660038  RH  082%=      5-min Rain = 0
KCH1 170659Z 16002KT 07/04 A3001 RMK A01 T00660038  RH  082%=      5-min Rain = 0
KCH1 170700Z 16002KT 07/04 A3001 RMK A01 T00660038  RH  082%=      5-min Rain = 0
KCH1 170701Z 17002KT 07/04 A3001 RMK A01 T00670039  RH  082%=      5-min Rain = 0
KCH1 170702Z 17002KT 07/04 A3001 RMK A01 T00670039  RH  082%=      5-min Rain = 0
KCH1 170703Z 17002KT 07/04 A3001 RMK A01 T00670038  RH  082%=      5-min Rain = 0
KCH1 170704Z 17003KT 07/04 A3001 RMK A01 T00680038  RH  081%=      5-min Rain = 0
KCH1 170705Z 18003KT 07/04 A3001 RMK A01 T00680038  RH  081%=      5-min Rain = 0
KCH1 170706Z 18003KT 07/04 A3001 RMK A01 T00680038  RH  081%=      5-min Rain = 0
KCH1 170707Z 18003KT 07/04 A3001 RMK A01 T00680038  RH  081%=      5-min Rain = 0
KCH1 170708Z 19003KT 07/04 A3001 RMK A01 T00680038  RH  081%=      5-min Rain = 0
KCH1 170709Z 18003KT 07/04 A3001 RMK A01 T00690038  RH  081%=      5-min Rain = 0
KCH1 170710Z 19003KT 07/04 A3001 RMK A01 T00690038  RH  081%=      5-min Rain = 0
KCH1 170711Z 19003KT 07/04 A3001 RMK A01 T00690038  RH  081%=      5-min Rain = 0
KCH1 170712Z 19003KT 07/04 A3001 RMK A01 T00700038  RH  080%=      5-min Rain = 0
KCH1 170713Z 18003KT 07/04 A3001 RMK A01 T00700038  RH  080%=      5-min Rain = 0
KCH1 170714Z 18002KT 07/04 A3001 RMK A01 T00700038  RH  080%=      5-min Rain = 0
KCH1 170715Z 18002KT 07/04 A3001 RMK A01 T00700038  RH  080%=      5-min Rain = 0
KCH1 170716Z 17002KT 07/04 A30 RMK A01 T00700038  RH  080%=      5-min Rain = 0
KCH1 170717Z 18002KT 07/04 A30 RMK A01 T00700038  RH  080%=      5-min Rain = 0
KCH1 170718Z 18002KT 07/04 A30 RMK A01 T00690038  RH  080%=      5-min Rain = 0
KCH1 170719Z 18002KT 07/04 A30 RMK A01 T00690038  RH  080%=      5-min Rain = 0
KCH1 170720Z 17002KT 07/04 A30 RMK A01 T00690038  RH  081%=      5-min Rain = 0
KCH1 170721Z 16002KT 07/04 A30 RMK A01 T00690038  RH  081%=      5-min Rain = 0
KCH1 170722Z 17002KT 07/04 A30 RMK A01 T00680037  RH  081%=      5-min Rain = 0
KCH1 170723Z 16002KT 07/04 A30 RMK A01 T00680037  RH  081%=      5-min Rain = 0
KCH1 170724Z 15002KT 07/04 A30 RMK A01 T00670037  RH  081%=      5-min Rain = 0
KCH1 170725Z 15002KT 07/04 A30 RMK A01 T00660036  RH  081%=      5-min Rain = 0
KCH1 170726Z 14002KT 07/04 A30 RMK A01 T00650036  RH  082%=      5-min Rain = 0
KCH1 170727Z 14002KT 06/04 A30 RMK A01 T00630035  RH  082%=      5-min Rain = 0
KCH1 170728Z 13002KT 06/04 A3001 RMK A01 T00620036  RH  083%=      5-min Rain = 0
KCH1 170729Z 14002KT 06/04 A3001 RMK A01 T00610035  RH  084%=      5-min Rain = 0
KCH1 170730Z 13002KT 06/04 A3001 RMK A01 T00600035  RH  084%=      5-min Rain = 0
KCH1 170731Z 12002KT 06/04 A3001 RMK A01 T00600035  RH  084%=      5-min Rain = 0
KCH1 170732Z 11002KT 06/03 A3001 RMK A01 T00580033  RH  084%=      5-min Rain = 0
KCH1 170733Z 10003KT 06/03 A3001 RMK A01 T00560032  RH  084%=      5-min Rain = 0
KCH1 170734Z 10002KT 05/03 A3001 RMK A01 T00540031  RH  085%=      5-min Rain = 0
KCH1 170735Z 10003KT 05/03 A3001 RMK A01 T00520029  RH  085%=      5-min Rain = 0
KCH1 170736Z 10003KT 05/03 A3001 RMK A01 T00510029  RH  086%=      5-min Rain = 0
KCH1 170737Z 10003KT 05/03 A3001 RMK A01 T00490029  RH  087%=      5-min Rain = 0
KCH1 170738Z 10003KT 05/03 A3001 RMK A01 T00490030  RH  087%=      5-min Rain = 0
KCH1 170739Z 10003KT 05/03 A3001 RMK A01 T00480030  RH  088%=      5-min Rain = 0
KCH1 170740Z 10003KT 05/03 A3001 RMK A01 T00480030  RH  088%=      5-min Rain = 0
KCH1 170741Z 11003KT 05/03 A3001 RMK A01 T00480030  RH  088%=      5-min Rain = 0
KCH1 170742Z 11003KT 05/03 A3001 RMK A01 T00470029  RH  088%=      5-min Rain = 0
KCH1 170743Z 11003KT 05/03 A3001 RMK A01 T00460028  RH  088%=      5-min Rain = 0
KCH1 170744Z 11003KT 05/03 A3001 RMK A01 T00460028  RH  088%=      5-min Rain = 0
KCH1 170745Z 12004KT 05/03 A3001 RMK A01 T00450029  RH  089%=      5-min Rain = 0
KCH1 170746Z 12003KT 05/03 A3001 RMK A01 T00460029  RH  089%=      5-min Rain = 0
KCH1 170747Z 12003KT 05/03 A30 RMK A01 T00460030  RH  089%=      5-min Rain = 0
KCH1 170748Z 13003KT 05/03 A3001 RMK A01 T00460031  RH  090%=      5-min Rain = 0
KCH1 170749Z 13004KT 05/03 A3001 RMK A01 T00470031  RH  089%=      5-min Rain = 0
KCH1 170750Z 14004KT 05/03 A3001 RMK A01 T00470031  RH  089%=      5-min Rain = 0
KCH1 170751Z 13004KT 05/03 A3001 RMK A01 T00470031  RH  089%=      5-min Rain = 0
KCH1 170752Z 13004KT 05/03 A3001 RMK A01 T00480031  RH  089%=      5-min Rain = 0
KCH1 170753Z 13004KT 05/03 A3001 RMK A01 T00480031  RH  089%=      5-min Rain = 0
KCH1 170754Z 13003KT 05/03 A3001 RMK A01 T00480030  RH  088%=      5-min Rain = 0
KCH1 170755Z 13002KT 05/03 A3001 RMK A01 T00470030  RH  088%=      5-min Rain = 0
KCH1 170756Z 12002KT 05/03 A3001 RMK A01 T00460029  RH  088%=      5-min Rain = 0
KCH1 170757Z 11001KT 05/03 A3001 RMK A01 T00450027  RH  088%=      5-min Rain = 0
KCH1 170758Z 09001KT 04/03 A3001 RMK A01 T00440028  RH  089%=      5-min Rain = 0
KCH1 170759Z 11002KT 04/03 A3001 RMK A01 T00440028  RH  089%=      5-min Rain = 0
KCH1 170800Z 11001KT 04/03 A3001 RMK A01 T00440029  RH  090%=      5-min Rain = 0
KCH1 170801Z 10001KT 04/03 A3001 RMK A01 T00440030  RH  090%=      5-min Rain = 0
KCH1 170802Z 11002KT 04/03 A3001 RMK A01 T00440030  RH  090%=      5-min Rain = 0
KCH1 170803Z 09002KT 05/03 A3001 RMK A01 T00450031  RH  091%=      5-min Rain = 0
KCH1 170804Z 08002KT 05/03 A3001 RMK A01 T00450031  RH  090%=      5-min Rain = 0
KCH1 170805Z 08002KT 05/03 A3001 RMK A01 T00460032  RH  090%=      5-min Rain = 0
KCH1 170806Z 09002KT 05/03 A3001 RMK A01 T00470033  RH  090%=      5-min Rain = 0
KCH1 170807Z 08002KT 05/03 A3001 RMK A01 T00480033  RH  090%=      5-min Rain = 0
KCH1 170808Z 07002KT 05/03 A3001 RMK A01 T00490033  RH  090%=      5-min Rain = 0
KCH1 170809Z 08001KT 05/03 A3001 RMK A01 T00500034  RH  089%=      5-min Rain = 0
KCH1 170810Z 07002KT 05/04 A3001 RMK A01 T00510035  RH  089%=      5-min Rain = 0
KCH1 170811Z 08002KT 05/04 A3001 RMK A01 T00530036  RH  089%=      5-min Rain = 0
KCH1 170812Z 08002KT 05/04 A3001 RMK A01 T00530035  RH  088%=      5-min Rain = 0
KCH1 170813Z 08002KT 05/04 A3001 RMK A01 T00540035  RH  088%=      5-min Rain = 0
KCH1 170814Z 07002KT 05/04 A3001 RMK A01 T00540035  RH  088%=      5-min Rain = 0
KCH1 170815Z 08002KT 06/04 A30 RMK A01 T00550035  RH  087%=      5-min Rain = 0
KCH1 170816Z 09003KT 06/04 A30 RMK A01 T00550035  RH  087%=      5-min Rain = 0
KCH1 170817Z 09003KT 06/03 A30 RMK A01 T00550034  RH  086%=      5-min Rain = 0
KCH1 170818Z 09003KT 06/03 A30 RMK A01 T00550033  RH  086%=      5-min Rain = 0
KCH1 170819Z 09003KT 05/03 A30 RMK A01 T00540033  RH  086%=      5-min Rain = 0
KCH1 170820Z 09003KT 05/03 A30 RMK A01 T00530032  RH  086%=      5-min Rain = 0
KCH1 170821Z 08003KT 05/03 A30 RMK A01 T00520031  RH  086%=      5-min Rain = 0
KCH1 170822Z 07003KT 05/03 A30 RMK A01 T00510030  RH  086%=      5-min Rain = 0
KCH1 170823Z 07003KT 05/03 A30 RMK A01 T00500030  RH  087%=      5-min Rain = 0
KCH1 170824Z 06003KT 05/03 A3001 RMK A01 T00490029  RH  087%=      5-min Rain = 0
KCH1 170825Z 07003KT 05/03 A3001 RMK A01 T00480028  RH  087%=      5-min Rain = 0
KCH1 170826Z 07003KT 05/03 A3001 RMK A01 T00470029  RH  088%=      5-min Rain = 0
KCH1 170827Z 07003KT 05/03 A3001 RMK A01 T00470030  RH  088%=      5-min Rain = 0
KCH1 170828Z 07003KT 05/03 A3001 RMK A01 T00470030  RH  088%=      5-min Rain = 0
KCH1 170829Z 07004KT 05/03 A30 RMK A01 T00470030  RH  089%=      5-min Rain = 0
KCH1 170830Z 07004KT 05/03 A30 RMK A01 T00470030  RH  089%=      5-min Rain = 0
KCH1 170831Z 07004KT 05/03 A30 RMK A01 T00460029  RH  089%=      5-min Rain = 0
KCH1 170832Z 06004KT 05/03 A30 RMK A01 T00450028  RH  089%=      5-min Rain = 0
KCH1 170833Z 06004KT 05/03 A30 RMK A01 T00450029  RH  089%=      5-min Rain = 0
KCH1 170834Z 06005KT 05/03 A30 RMK A01 T00450029  RH  089%=      5-min Rain = 0
KCH1 170835Z 05004KT 05/03 A30 RMK A01 T00450029  RH  089%=      5-min Rain = 0
KCH1 170836Z 06004KT 05/03 A30 RMK A01 T00450029  RH  089%=      5-min Rain = 0
KCH1 170837Z 06004KT 05/03 A30 RMK A01 T00450029  RH  089%=      5-min Rain = 0
KCH1 170838Z 05004KT 04/03 A30 RMK A01 T00440029  RH  090%=      5-min Rain = 0
KCH1 170839Z 06005KT 05/03 A30 RMK A01 T00450030  RH  090%=      5-min Rain = 0
KCH1 170840Z 06005KT 05/03 A30 RMK A01 T00460031  RH  091%=      5-min Rain = 0
KCH1 170841Z 06004KT 05/03 A30 RMK A01 T00460030  RH  090%=      5-min Rain = 0
KCH1 170842Z 06004KT 05/03 A30 RMK A01 T00450030  RH  090%=      5-min Rain = 0
KCH1 170843Z 06004KT 05/03 A30 RMK A01 T00450030  RH  090%=      5-min Rain = 0
KCH1 170844Z 06004KT 05/03 A30 RMK A01 T00450030  RH  090%=      5-min Rain = 0
KCH1 170845Z 07004KT 05/03 A3001 RMK A01 T00460032  RH  090%=      5-min Rain = 0
KCH1 170846Z 07003KT 05/03 A3001 RMK A01 T00490034  RH  090%=      5-min Rain = 0
KCH1 170847Z 08003KT 05/04 A3001 RMK A01 T00500035  RH  090%=      5-min Rain = 0
KCH1 170848Z 08003KT 05/04 A3001 RMK A01 T00510035  RH  089%=      5-min Rain = 0
KCH1 170849Z 09003KT 05/03 A3001 RMK A01 T00520034  RH  088%=      5-min Rain = 0
KCH1 170850Z 09003KT 05/03 A3001 RMK A01 T00530034  RH  088%=      5-min Rain = 0
KCH1 170851Z 08003KT 05/03 A3001 RMK A01 T00530034  RH  087%=      5-min Rain = 0
KCH1 170852Z 07003KT 05/03 A3001 RMK A01 T00540034  RH  087%=      5-min Rain = 0
KCH1 170853Z 06003KT 06/03 A3001 RMK A01 T00550034  RH  087%=      5-min Rain = 0
KCH1 170854Z 05003KT 05/03 A3001 RMK A01 T00540033  RH  086%=      5-min Rain = 0
KCH1 170855Z 05003KT 05/03 A30 RMK A01 T00540032  RH  086%=      5-min Rain = 0
KCH1 170856Z 05003KT 05/03 A30 RMK A01 T00530032  RH  086%=      5-min Rain = 0
KCH1 170857Z 05003KT 05/03 A30 RMK A01 T00530033  RH  087%=      5-min Rain = 0
KCH1 170858Z 06003KT 05/03 A30 RMK A01 T00530034  RH  087%=      5-min Rain = 0
KCH1 170859Z 06003KT 05/03 A30 RMK A01 T00540034  RH  087%=      5-min Rain = 0
KCH1 170900Z 07003KT 05/03 A30 RMK A01 T00540034  RH  087%=      5-min Rain = 0
KCH1 170901Z 07003KT 06/04 A30 RMK A01 T00550035  RH  087%=      5-min Rain = 0
KCH1 170902Z 07003KT 06/04 A30 RMK A01 T00560035  RH  086%=      5-min Rain = 0
KCH1 170903Z 07003KT 06/03 A30 RMK A01 T00560034  RH  086%=      5-min Rain = 0
KCH1 170904Z 07003KT 06/03 A30 RMK A01 T00560034  RH  086%=      5-min Rain = 0
KCH1 170905Z 07003KT 06/03 A30 RMK A01 T00560034  RH  086%=      5-min Rain = 0
KCH1 170906Z 07003KT 06/03 A30 RMK A01 T00560034  RH  086%=      5-min Rain = 0
KCH1 170907Z 06004KT 06/03 A30 RMK A01 T00550034  RH  086%=      5-min Rain = 0
KCH1 170908Z 06004KT 06/03 A30 RMK A01 T00550033  RH  086%=      5-min Rain = 0
KCH1 170909Z 05004KT 05/03 A30 RMK A01 T00540033  RH  086%=      5-min Rain = 0
KCH1 170910Z 05004KT 05/03 A30 RMK A01 T00520030  RH  086%=      5-min Rain = 0
KCH1 170911Z 04004KT 05/03 A30 RMK A01 T00500028  RH  085%=      5-min Rain = 0
KCH1 170912Z 04004KT 05/03 A30 RMK A01 T00490029  RH  087%=      5-min Rain = 0
KCH1 170913Z 05004KT 05/03 A30 RMK A01 T00490030  RH  088%=      5-min Rain = 0
KCH1 170914Z 05004KT 05/03 A30 RMK A01 T00490031  RH  088%=      5-min Rain = 0
KCH1 170915Z 06004KT 05/03 A30 RMK A01 T00500032  RH  088%=      5-min Rain = 0
KCH1 170916Z 06004KT 05/03 A30 RMK A01 T00500032  RH  088%=      5-min Rain = 0
KCH1 170917Z 06004KT 05/03 A30 RMK A01 T00510033  RH  088%=      5-min Rain = 0
KCH1 170918Z 07004KT 05/03 A30 RMK A01 T00520033  RH  088%=      5-min Rain = 0
KCH1 170919Z 07004KT 05/03 A30 RMK A01 T00530033  RH  087%=      5-min Rain = 0
KCH1 170920Z 07004KT 05/03 A30 RMK A01 T00530032  RH  087%=      5-min Rain = 0
KCH1 170921Z 07004KT 05/03 A30 RMK A01 T00530032  RH  086%=      5-min Rain = 0
KCH1 170922Z 07004KT 05/03 A30 RMK A01 T00520032  RH  086%=      5-min Rain = 0
KCH1 170923Z 07004KT 05/03 A30 RMK A01 T00520032  RH  087%=      5-min Rain = 0
KCH1 170924Z 06004KT 05/03 A30 RMK A01 T00530032  RH  087%=      5-min Rain = 0
KCH1 170925Z 06004KT 05/03 A30 RMK A01 T00530032  RH  087%=      5-min Rain = 0
KCH1 170926Z 06004KT 05/03 A30 RMK A01 T00530032  RH  086%=      5-min Rain = 0
KCH1 170927Z 06004KT 05/03 A30 RMK A01 T00530031  RH  086%=      5-min Rain = 0
KCH1 170928Z 06004KT 05/03 A30 RMK A01 T00520031  RH  086%=      5-min Rain = 0
KCH1 170929Z 05004KT 05/03 A30 RMK A01 T00510030  RH  086%=      5-min Rain = 0
KCH1 170930Z 05004KT 05/03 A30 RMK A01 T00510030  RH  087%=      5-min Rain = 0
KCH1 170931Z 05004KT 05/03 A30 RMK A01 T00500030  RH  087%=      5-min Rain = 0
KCH1 170932Z 05003KT 05/03 A30 RMK A01 T00500031  RH  087%=      5-min Rain = 0
KCH1 170933Z 06003KT 05/03 A30 RMK A01 T00510032  RH  088%=      5-min Rain = 0
KCH1 170934Z 06003KT 05/03 A2999 RMK A01 T00530034  RH  088%=      5-min Rain = 0
KCH1 170935Z 07003KT 06/04 A2999 RMK A01 T00550035  RH  087%=      5-min Rain = 0
KCH1 170936Z 07003KT 06/04 A2999 RMK A01 T00570036  RH  086%=      5-min Rain = 0
KCH1 170937Z 08002KT 06/04 A2999 RMK A01 T00580035  RH  085%=      5-min Rain = 0
KCH1 170938Z 08002KT 06/04 A2999 RMK A01 T00590035  RH  085%=      5-min Rain = 0
KCH1 170939Z 08002KT 06/03 A2999 RMK A01 T00590034  RH  084%=      5-min Rain = 0
KCH1 170940Z 08003KT 06/03 A2999 RMK A01 T00580033  RH  084%=      5-min Rain = 0
KCH1 170941Z 08003KT 06/03 A2999 RMK A01 T00560032  RH  084%=      5-min Rain = 0
KCH1 170942Z 08003KT 06/03 A2999 RMK A01 T00560032  RH  085%=      5-min Rain = 0
KCH1 170943Z 07003KT 05/03 A2999 RMK A01 T00540031  RH  085%=      5-min Rain = 0
KCH1 170944Z 07003KT 05/03 A2999 RMK A01 T00520029  RH  085%=      5-min Rain = 0
KCH1 170945Z 06003KT 05/03 A2999 RMK A01 T00500029  RH  086%=      5-min Rain = 0
KCH1 170946Z 06004KT 05/03 A2999 RMK A01 T00480027  RH  086%=      5-min Rain = 0
KCH1 170947Z 05004KT 05/03 A2999 RMK A01 T00460027  RH  087%=      5-min Rain = 0
KCH1 170948Z 06004KT 05/03 A2999 RMK A01 T00450027  RH  088%=      5-min Rain = 0
KCH1 170949Z 06004KT 05/03 A2999 RMK A01 T00450028  RH  089%=      5-min Rain = 0
KCH1 170950Z 06004KT 04/03 A2999 RMK A01 T00440028  RH  089%=      5-min Rain = 0
KCH1 170951Z 05004KT 04/03 A2999 RMK A01 T00440028  RH  089%=      5-min Rain = 0
KCH1 170952Z 06004KT 04/03 A2999 RMK A01 T00440029  RH  090%=      5-min Rain = 0
KCH1 170953Z 06004KT 04/03 A2999 RMK A01 T00440028  RH  090%=      5-min Rain = 0
KCH1 170954Z 06004KT 04/03 A2999 RMK A01 T00430028  RH  090%=      5-min Rain = 0
KCH1 170955Z 06004KT 04/03 A2999 RMK A01 T00420027  RH  090%=      5-min Rain = 0
KCH1 170956Z 06004KT 04/03 A2999 RMK A01 T00420027  RH  090%=      5-min Rain = 0
KCH1 170957Z 07003KT 04/03 A2999 RMK A01 T00420028  RH  090%=      5-min Rain = 0
KCH1 170958Z 08003KT 04/03 A2999 RMK A01 T00420028  RH  091%=      5-min Rain = 0
KCH1 170959Z 08003KT 04/03 A2999 RMK A01 T00420028  RH  091%=      5-min Rain = 0
KCH1 171000Z 08003KT 04/03 A2999 RMK A01 T00420028  RH  091%=      5-min Rain = 0
KCH1 171001Z 07003KT 04/03 A2999 RMK A01 T00420028  RH  091%=      5-min Rain = 0
KCH1 171002Z 07003KT 04/03 A2999 RMK A01 T00420028  RH  091%=      5-min Rain = 0
KCH1 171003Z 07002KT 04/03 A2999 RMK A01 T00420028  RH  091%=      5-min Rain = 0
KCH1 171004Z 07002KT 04/03 A2999 RMK A01 T00420029  RH  091%=      5-min Rain = 0
KCH1 171005Z 08002KT 04/03 A2999 RMK A01 T00440030  RH  091%=      5-min Rain = 0
KCH1 171006Z 08002KT 04/03 A2999 RMK A01 T00440031  RH  091%=      5-min Rain = 0
KCH1 171007Z 09002KT 05/03 A2999 RMK A01 T00450030  RH  090%=      5-min Rain = 0
KCH1 171008Z 10001KT 05/03 A2999 RMK A01 T00450031  RH  090%=      5-min Rain = 0
KCH1 171009Z 10001KT 05/03 A2999 RMK A01 T00460031  RH  090%=      5-min Rain = 0
KCH1 171010Z 12001KT 05/03 A2999 RMK A01 T00460031  RH  090%=      5-min Rain = 0
KCH1 171011Z 15002KT 05/03 A2999 RMK A01 T00460030  RH  089%=      5-min Rain = 0
KCH1 171012Z 15003KT 05/03 A2998 RMK A01 T00450030  RH  090%=      5-min Rain = 0
KCH1 171013Z 16003KT 05/03 A2998 RMK A01 T00450030  RH  090%=      5-min Rain = 0
KCH1 171014Z 16002KT 05/03 A2998 RMK A01 T00450029  RH  089%=      5-min Rain = 0
KCH1 171015Z 16003KT 04/03 A2998 RMK A01 T00440028  RH  089%=      5-min Rain = 0
KCH1 171016Z 17003KT 04/03 A2998 RMK A01 T00440029  RH  090%=      5-min Rain = 0
KCH1 171017Z 17003KT 04/03 A2998 RMK A01 T00440030  RH  091%=      5-min Rain = 0
KCH1 171018Z 16003KT 05/03 A2998 RMK A01 T00460032  RH  090%=      5-min Rain = 0
KCH1 171019Z 15003KT 05/03 A2998 RMK A01 T00470032  RH  090%=      5-min Rain = 0
KCH1 171020Z 14002KT 05/03 A2998 RMK A01 T00480032  RH  089%=      5-min Rain = 0
KCH1 171021Z 11001KT 05/03 A2998 RMK A01 T00490031  RH  088%=      5-min Rain = 0
KCH1 171022Z 07001KT 05/03 A2998 RMK A01 T00490030  RH  088%=      5-min Rain = 0
KCH1 171023Z 06001KT 05/03 A2999 RMK A01 T00470028  RH  087%=      5-min Rain = 0
KCH1 171024Z 05001KT 05/03 A2999 RMK A01 T00450026  RH  088%=      5-min Rain = 0
KCH1 171025Z 06002KT 04/03 A2999 RMK A01 T00430025  RH  088%=      5-min Rain = 0
KCH1 171026Z 07001KT 04/02 A2998 RMK A01 T00410024  RH  089%=      5-min Rain = 0
KCH1 171027Z 07001KT 04/02 A2999 RMK A01 T00390023  RH  089%=      5-min Rain = 0
KCH1 171028Z 06001KT 04/02 A2999 RMK A01 T00380024  RH  090%=      5-min Rain = 0
KCH1 171029Z 06001KT 04/03 A2999 RMK A01 T00380026  RH  092%=      5-min Rain = 0
KCH1 171030Z 07001KT 04/03 A2999 RMK A01 T00390028  RH  092%=      5-min Rain = 0
KCH1 171031Z 08001KT 04/03 A2999 RMK A01 T00390028  RH  092%=      5-min Rain = 0
KCH1 171032Z 08000KT 04/03 A2999 RMK A01 T00410030  RH  093%=      5-min Rain = 0
KCH1 171033Z 09001KT 04/03 A2999 RMK A01 T00410030  RH  092%=      5-min Rain = 0
KCH1 171034Z 08001KT 04/03 A2999 RMK A01 T00410030  RH  092%=      5-min Rain = 0
KCH1 171035Z 07002KT 04/03 A2999 RMK A01 T00420031  RH  092%=      5-min Rain = 0
KCH1 171036Z 06002KT 04/03 A2999 RMK A01 T00430031  RH  092%=      5-min Rain = 0
KCH1 171037Z 06002KT 04/03 A2999 RMK A01 T00440031  RH  091%=      5-min Rain = 0
KCH1 171038Z 06002KT 04/03 A2999 RMK A01 T00440030  RH  091%=      5-min Rain = 0
KCH1 171039Z 05002KT 04/03 A2999 RMK A01 T00440030  RH  091%=      5-min Rain = 0
KCH1 171040Z 05001KT 05/03 A2999 RMK A01 T00450031  RH  091%=      5-min Rain = 0
KCH1 171041Z 05002KT 05/03 A2999 RMK A01 T00460032  RH  091%=      5-min Rain = 0
KCH1 171042Z 04002KT 05/03 A2999 RMK A01 T00470032  RH  090%=      5-min Rain = 0
KCH1 171043Z 04002KT 05/03 A2999 RMK A01 T00480032  RH  090%=      5-min Rain = 0
KCH1 171044Z 04003KT 05/03 A2999 RMK A01 T00490032  RH  089%=      5-min Rain = 0
KCH1 171045Z 04003KT 05/03 A2999 RMK A01 T00490032  RH  089%=      5-min Rain = 0
KCH1 171046Z 04003KT 05/03 A2999 RMK A01 T00480030  RH  088%=      5-min Rain = 0
KCH1 171047Z 04004KT 05/03 A2999 RMK A01 T00460027  RH  087%=      5-min Rain = 0
KCH1 171048Z 04004KT 04/03 A30 RMK A01 T00440025  RH  088%=      5-min Rain = 0
KCH1 171049Z 04003KT 04/03 A30 RMK A01 T00420025  RH  088%=      5-min Rain = 0
KCH1 171050Z 04003KT 04/03 A30 RMK A01 T00410025  RH  089%=      5-min Rain = 0
KCH1 171051Z 05003KT 04/03 A2999 RMK A01 T00420027  RH  090%=      5-min Rain = 0
KCH1 171052Z 06002KT 04/03 A2999 RMK A01 T00430030  RH  091%=      5-min Rain = 0
KCH1 171053Z 07002KT 05/03 A2999 RMK A01 T00450031  RH  091%=      5-min Rain = 0
KCH1 171054Z 07002KT 04/03 A2999 RMK A01 T00440027  RH  089%=      5-min Rain = 0
KCH1 171055Z 08001KT 04/03 A2999 RMK A01 T00430026  RH  088%=      5-min Rain = 0
KCH1 171056Z 09001KT 04/03 A2999 RMK A01 T00430028  RH  090%=      5-min Rain = 0
KCH1 171057Z 09001KT 05/03 A2999 RMK A01 T00460032  RH  091%=      5-min Rain = 0
KCH1 171058Z 08001KT 05/03 A2999 RMK A01 T00470032  RH  090%=      5-min Rain = 0
KCH1 171059Z 07001KT 05/03 A2999 RMK A01 T00470031  RH  089%=      5-min Rain = 0
KCH1 171100Z 07001KT 05/03 A2999 RMK A01 T00470031  RH  089%=      5-min Rain = 0
KCH1 171101Z 07001KT 05/03 A2999 RMK A01 T00480032  RH  089%=      5-min Rain = 0
KCH1 171102Z 07002KT 05/03 A2999 RMK A01 T00490033  RH  089%=      5-min Rain = 0
KCH1 171103Z 07002KT 05/03 A2999 RMK A01 T00500033  RH  089%=      5-min Rain = 0
KCH1 171104Z 07002KT 05/03 A30 RMK A01 T00500032  RH  088%=      5-min Rain = 0
KCH1 171105Z 06002KT 05/03 A30 RMK A01 T00490030  RH  087%=      5-min Rain = 0
KCH1 171106Z 06002KT 05/03 A30 RMK A01 T00470027  RH  087%=      5-min Rain = 0
KCH1 171107Z 06002KT 05/03 A30 RMK A01 T00460027  RH  088%=      5-min Rain = 0
KCH1 171108Z 06002KT 04/03 A30 RMK A01 T00440027  RH  089%=      5-min Rain = 0
KCH1 171109Z 06002KT 04/03 A30 RMK A01 T00440028  RH  089%=      5-min Rain = 0
KCH1 171110Z 05002KT 04/03 A30 RMK A01 T00420025  RH  088%=      5-min Rain = 0
KCH1 171111Z 05001KT 04/02 A30 RMK A01 T00420024  RH  089%=      5-min Rain = 0
KCH1 171112Z 06001KT 04/03 A30 RMK A01 T00410027  RH  090%=      5-min Rain = 0
KCH1 171113Z 06001KT 04/03 A30 RMK A01 T00420029  RH  091%=      5-min Rain = 0
KCH1 171114Z 06001KT 04/03 A30 RMK A01 T00430030  RH  091%=      5-min Rain = 0
KCH1 171115Z 05001KT 04/03 A30 RMK A01 T00430030  RH  091%=      5-min Rain = 0
KCH1 171116Z 04002KT 04/03 A30 RMK A01 T00440031  RH  091%=      5-min Rain = 0
KCH1 171117Z 03001KT 05/03 A30 RMK A01 T00450032  RH  091%=      5-min Rain = 0
KCH1 171118Z 04002KT 05/03 A30 RMK A01 T00460032  RH  091%=      5-min Rain = 0
KCH1 171119Z 04002KT 05/03 A30 RMK A01 T00460031  RH  090%=      5-min Rain = 0
KCH1 171120Z 04002KT 05/03 A30 RMK A01 T00460031  RH  090%=      5-min Rain = 0
KCH1 171121Z 04002KT 05/03 A30 RMK A01 T00470032  RH  090%=      5-min Rain = 0
KCH1 171122Z 03002KT 05/03 A30 RMK A01 T00470032  RH  090%=      5-min Rain = 0
KCH1 171123Z 03003KT 05/03 A30 RMK A01 T00470030  RH  089%=      5-min Rain = 0
KCH1 171124Z 03002KT 05/03 A30 RMK A01 T00460029  RH  089%=      5-min Rain = 0
KCH1 171125Z 04002KT 05/03 A30 RMK A01 T00450030  RH  090%=      5-min Rain = 0
KCH1 171126Z 06001KT 05/03 A30 RMK A01 T00450030  RH  090%=      5-min Rain = 0
KCH1 171127Z 08001KT 05/03 A30 RMK A01 T00470032  RH  090%=      5-min Rain = 0
KCH1 171128Z 09001KT 05/03 A30 RMK A01 T00480032  RH  090%=      5-min Rain = 0
KCH1 171129Z 10001KT 05/03 A30 RMK A01 T00480031  RH  089%=      5-min Rain = 0
KCH1 171130Z 11001KT 05/03 A30 RMK A01 T00480031  RH  089%=      5-min Rain = 0
KCH1 171131Z 11001KT 05/03 A30 RMK A01 T00480031  RH  089%=      5-min Rain = 0
KCH1 171132Z 10001KT 05/03 A30 RMK A01 T00480031  RH  089%=      5-min Rain = 0
KCH1 171133Z 10001KT 05/03 A30 RMK A01 T00480031  RH  089%=      5-min Rain = 0
KCH1 171134Z 10001KT 05/03 A30 RMK A01 T00490032  RH  089%=      5-min Rain = 0
KCH1 171135Z 10001KT 05/03 A30 RMK A01 T00490032  RH  089%=      5-min Rain = 0
KCH1 171136Z 10001KT 05/03 A30 RMK A01 T00490030  RH  088%=      5-min Rain = 0
KCH1 171137Z 11002KT 05/02 A30 RMK A01 T00450024  RH  086%=      5-min Rain = 0
KCH1 171138Z 12002KT 04/02 A30 RMK A01 T00410020  RH  086%=      5-min Rain = 0
KCH1 171139Z 13002KT 04/02 A30 RMK A01 T00360015  RH  086%=      5-min Rain = 0
KCH1 171140Z 13002KT 03/01 A30 RMK A01 T00320011  RH  086%=      5-min Rain = 0
KCH1 171141Z 13002KT 03/01 A30 RMK A01 T00280011  RH  088%=      5-min Rain = 0
KCH1 171142Z 13002KT 03/02 A30 RMK A01 T00280015  RH  091%=      5-min Rain = 0
KCH1 171143Z 13002KT 03/02 A30 RMK A01 T00290019  RH  093%=      5-min Rain = 0
KCH1 171144Z 13001KT 03/02 A30 RMK A01 T00310023  RH  094%=      5-min Rain = 0
KCH1 171145Z 13001KT 03/03 A30 RMK A01 T00330027  RH  095%=      5-min Rain = 0
KCH1 171146Z 13000KT 04/03 A30 RMK A01 T00350029  RH  096%=      5-min Rain = 0
KCH1 171147Z 00000KT 04/03 A30 RMK A01 T00370031  RH  096%=      5-min Rain = 0
KCH1 171148Z 00000KT 04/03 A30 RMK A01 T00390033  RH  096%=      5-min Rain = 0
KCH1 171149Z 00000KT 04/03 A3001 RMK A01 T00410034  RH  096%=      5-min Rain = 0
KCH1 171150Z 00000KT 04/04 A3001 RMK A01 T00420035  RH  095%=      5-min Rain = 0
KCH1 171151Z 00000KT 04/03 A3001 RMK A01 T00430034  RH  094%=      5-min Rain = 0
KCH1 171152Z 00000KT 04/03 A3001 RMK A01 T00410030  RH  093%=      5-min Rain = 0
KCH1 171153Z 12000KT 04/03 A3001 RMK A01 T00390026  RH  091%=      5-min Rain = 0
KCH1 171154Z 11001KT 03/02 A30 RMK A01 T00340017  RH  089%=      5-min Rain = 0
KCH1 171155Z 11001KT 03/01 A30 RMK A01 T00280009  RH  088%=      5-min Rain = 0
KCH1 171156Z 11002KT 02/00 A30 RMK A01 T00210002  RH  087%=      5-min Rain = 0
KCH1 171157Z 10002KT 02/M00 A30 RMK A01 T00161002  RH  088%=      5-min Rain = 0
KCH1 171158Z 09002KT 01/M00 A30 RMK A01 T00121003  RH  090%=      5-min Rain = 0
KCH1 171159Z 08002KT 01/M00 A30 RMK A01 T00111001  RH  092%=      5-min Rain = 0
KCH1 171200Z 09002KT 01/00 A30 RMK A01 T00110001  RH  093%=      5-min Rain = 0
KCH1 171201Z 07003KT 01/00 A30 RMK A01 T00110003  RH  095%=      5-min Rain = 0
KCH1 171202Z 08003KT 01/01 A30 RMK A01 T00120006  RH  095%=      5-min Rain = 0
KCH1 171203Z 07003KT 01/01 A30 RMK A01 T00140008  RH  096%=      5-min Rain = 0
KCH1 171204Z 07004KT 01/01 A30 RMK A01 T00140009  RH  097%=      5-min Rain = 0
KCH1 171205Z 07004KT 02/01 A30 RMK A01 T00150011  RH  097%=      5-min Rain = 0
KCH1 171206Z 07004KT 02/01 A30 RMK A01 T00160011  RH  097%=      5-min Rain = 0
KCH1 171207Z 07004KT 02/01 A30 RMK A01 T00150010  RH  096%=      5-min Rain = 0
KCH1 171208Z 07005KT 01/01 A30 RMK A01 T00140008  RH  096%=      5-min Rain = 0
KCH1 171209Z 07005KT 01/01 A30 RMK A01 T00130007  RH  096%=      5-min Rain = 0
KCH1 171210Z 06005KT 01/01 A30 RMK A01 T00120006  RH  096%=      5-min Rain = 0
KCH1 171211Z 06004KT 01/01 A30 RMK A01 T00120007  RH  096%=      5-min Rain = 0
KCH1 171212Z 06004KT 01/01 A30 RMK A01 T00130009  RH  097%=      5-min Rain = 0
KCH1 171213Z 06004KT 01/01 A30 RMK A01 T00140010  RH  097%=      5-min Rain = 0
KCH1 171214Z 06004KT 01/01 A30 RMK A01 T00140010  RH  097%=      5-min Rain = 0
KCH1 171215Z 05004KT 01/01 A30 RMK A01 T00140010  RH  097%=      5-min Rain = 0
KCH1 171216Z 05005KT 01/01 A30 RMK A01 T00140010  RH  097%=      5-min Rain = 0
KCH1 171217Z 05005KT 01/01 A30 RMK A01 T00130009  RH  097%=      5-min Rain = 0
KCH1 171218Z 05005KT 01/01 A30 RMK A01 T00140009  RH  097%=      5-min Rain = 0
KCH1 171219Z 05005KT 01/01 A30 RMK A01 T00130009  RH  097%=      5-min Rain = 0
KCH1 171220Z 05005KT 01/01 A3001 RMK A01 T00140009  RH  097%=      5-min Rain = 0
KCH1 171221Z 05005KT 01/01 A3001 RMK A01 T00130009  RH  097%=      5-min Rain = 0
KCH1 171222Z 05005KT 01/01 A3001 RMK A01 T00140009  RH  097%=      5-min Rain = 0
KCH1 171223Z 05005KT 01/01 A3001 RMK A01 T00140009  RH  097%=      5-min Rain = 0
KCH1 171224Z 05005KT 01/01 A3001 RMK A01 T00130009  RH  097%=      5-min Rain = 0
KCH1 171225Z 05005KT 01/01 A3001 RMK A01 T00140010  RH  097%=      5-min Rain = 0
KCH1 171226Z 05005KT 02/01 A3001 RMK A01 T00150012  RH  098%=      5-min Rain = 0
KCH1 171227Z 05005KT 02/01 A3001 RMK A01 T00170014  RH  098%=      5-min Rain = 0
KCH1 171228Z 05005KT 02/02 A3001 RMK A01 T00180015  RH  098%=      5-min Rain = 0
KCH1 171229Z 04005KT 02/02 A3001 RMK A01 T00200017  RH  098%=      5-min Rain = 0
KCH1 171230Z 04005KT 02/02 A3001 RMK A01 T00210019  RH  099%=      5-min Rain = 0
KCH1 171231Z 03005KT 02/02 A3001 RMK A01 T00230021  RH  099%=      5-min Rain = 0
KCH1 171232Z 03004KT 02/02 A3001 RMK A01 T00240021  RH  099%=      5-min Rain = 0
KCH1 171233Z 02005KT 02/02 A3001 RMK A01 T00240022  RH  098%=      5-min Rain = 0
KCH1 171234Z 02005KT 03/02 A3001 RMK A01 T00250022  RH  098%=      5-min Rain = 0
KCH1 171235Z 01005KT 03/02 A3001 RMK A01 T00260023  RH  098%=      5-min Rain = 0
KCH1 171236Z 01005KT 03/03 A3001 RMK A01 T00280025  RH  098%=      5-min Rain = 0
KCH1 171237Z 01005KT 03/03 A3002 RMK A01 T00290026  RH  098%=      5-min Rain = 0
KCH1 171238Z 01005KT 03/03 A3002 RMK A01 T00300027  RH  098%=      5-min Rain = 0
KCH1 171239Z 02005KT 03/03 A3002 RMK A01 T00320029  RH  098%=      5-min Rain = 0
KCH1 171240Z 02005KT 04/03 A3002 RMK A01 T00350031  RH  098%=      5-min Rain = 0
KCH1 171241Z 02005KT 04/03 A3002 RMK A01 T00360033  RH  098%=      5-min Rain = 0
KCH1 171242Z 02004KT 04/03 A3002 RMK A01 T00380033  RH  097%=      5-min Rain = 0
KCH1 171243Z 01005KT 04/03 A3002 RMK A01 T00390034  RH  096%=      5-min Rain = 0
KCH1 171244Z 01004KT 04/03 A3002 RMK A01 T00400034  RH  096%=      5-min Rain = 0
KCH1 171245Z 01004KT 04/03 A3002 RMK A01 T00410033  RH  095%=      5-min Rain = 0
KCH1 171246Z 01003KT 04/03 A3002 RMK A01 T00420033  RH  094%=      5-min Rain = 0
KCH1 171247Z 35003KT 04/03 A3002 RMK A01 T00420032  RH  093%=      5-min Rain = 0
KCH1 171248Z 34002KT 04/03 A3003 RMK A01 T00420031  RH  093%=      5-min Rain = 0
KCH1 171249Z 34003KT 04/03 A3003 RMK A01 T00410029  RH  092%=      5-min Rain = 0
KCH1 171250Z 35003KT 04/03 A3003 RMK A01 T00400028  RH  092%=      5-min Rain = 0
KCH1 171251Z 35003KT 04/03 A3003 RMK A01 T00380026  RH  092%=      5-min Rain = 0
KCH1 171252Z 35003KT 04/02 A3003 RMK A01 T00370024  RH  091%=      5-min Rain = 0
KCH1 171253Z 36002KT 04/02 A3003 RMK A01 T00360023  RH  092%=      5-min Rain = 0
KCH1 171254Z 00002KT 04/02 A3003 RMK A01 T00350024  RH  092%=      5-min Rain = 0
KCH1 171255Z 00001KT 04/03 A3003 RMK A01 T00360025  RH  093%=      5-min Rain = 0
KCH1 171256Z 35001KT 04/03 A3003 RMK A01 T00360026  RH  093%=      5-min Rain = 0
KCH1 171257Z 33001KT 04/03 A3003 RMK A01 T00370028  RH  094%=      5-min Rain = 0
KCH1 171258Z 32001KT 04/03 A3003 RMK A01 T00370028  RH  093%=      5-min Rain = 0
KCH1 171259Z 32001KT 04/03 A3003 RMK A01 T00380027  RH  093%=      5-min Rain = 0
KCH1 171300Z 31002KT 04/03 A3003 RMK A01 T00380027  RH  093%=      5-min Rain = 0
KCH1 171301Z 31003KT 04/03 A3003 RMK A01 T00380027  RH  093%=      5-min Rain = 0
KCH1 171302Z 31003KT 04/03 A3004 RMK A01 T00380028  RH  093%=      5-min Rain = 0
KCH1 171303Z 30003KT 04/03 A3004 RMK A01 T00390028  RH  093%=      5-min Rain = 0
KCH1 171304Z 31003KT 04/03 A3004 RMK A01 T00380027  RH  093%=      5-min Rain = 0
KCH1 171305Z 31003KT 04/03 A3004 RMK A01 T00380027  RH  093%=      5-min Rain = 0
KCH1 171306Z 31003KT 04/03 A3004 RMK A01 T00380027  RH  093%=      5-min Rain = 0
KCH1 171307Z 31003KT 04/03 A3004 RMK A01 T00380027  RH  093%=      5-min Rain = 0
KCH1 171308Z 32003KT 04/03 A3004 RMK A01 T00380028  RH  093%=      5-min Rain = 0
KCH1 171309Z 32004KT 04/03 A3004 RMK A01 T00380028  RH  093%=      5-min Rain = 0
KCH1 171310Z 32005KT 04/03 A3005 RMK A01 T00370027  RH  093%=      5-min Rain = 0
KCH1 171311Z 32005KT 04/03 A3005 RMK A01 T00360027  RH  093%=      5-min Rain = 0
KCH1 171312Z 31004KT 04/03 A3005 RMK A01 T00360028  RH  094%=      5-min Rain = 0
KCH1 171313Z 31004KT 04/03 A3005 RMK A01 T00380031  RH  095%=      5-min Rain = 0
KCH1 171314Z 31005KT 04/03 A3005 RMK A01 T00380031  RH  095%=      5-min Rain = 0
KCH1 171315Z 31005KT 04/03 A3005 RMK A01 T00390031  RH  095%=      5-min Rain = 0
KCH1 171316Z 31005KT 04/03 A3005 RMK A01 T00390031  RH  095%=      5-min Rain = 0
KCH1 171317Z 30005KT 04/03 A3005 RMK A01 T00390031  RH  094%=      5-min Rain = 0
KCH1 171318Z 31005KT 04/03 A3005 RMK A01 T00390030  RH  094%=      5-min Rain = 0
KCH1 171319Z 32004KT 04/03 A3005 RMK A01 T00390030  RH  094%=      5-min Rain = 0
KCH1 171320Z 33003KT 04/03 A3005 RMK A01 T00390031  RH  095%=      5-min Rain = 0
KCH1 171321Z 34002KT 04/03 A3005 RMK A01 T00380031  RH  095%=      5-min Rain = 0
KCH1 171322Z 33002KT 04/03 A3005 RMK A01 T00370030  RH  095%=      5-min Rain = 0
KCH1 171323Z 31003KT 04/03 A3005 RMK A01 T00370030  RH  095%=      5-min Rain = 0
KCH1 171324Z 31003KT 04/03 A3005 RMK A01 T00370029  RH  095%=      5-min Rain = 0
KCH1 171325Z 31002KT 04/03 A3005 RMK A01 T00370029  RH  095%=      5-min Rain = 0
KCH1 171326Z 30003KT 04/03 A3005 RMK A01 T00360029  RH  095%=      5-min Rain = 0
KCH1 171327Z 29002KT 04/03 A3005 RMK A01 T00360029  RH  095%=      5-min Rain = 0
KCH1 171328Z 28003KT 04/03 A3005 RMK A01 T00360029  RH  095%=      5-min Rain = 0
KCH1 171329Z 28003KT 04/03 A3005 RMK A01 T00360030  RH  095%=      5-min Rain = 0
KCH1 171330Z 28003KT 04/03 A3005 RMK A01 T00370030  RH  095%=      5-min Rain = 0
KCH1 171331Z 28003KT 04/03 A3005 RMK A01 T00370030  RH  095%=      5-min Rain = 0
KCH1 171332Z 28003KT 04/03 A3005 RMK A01 T00370030  RH  095%=      5-min Rain = 0
KCH1 171333Z 28003KT 04/03 A3005 RMK A01 T00370030  RH  095%=      5-min Rain = 0
KCH1 171334Z 28002KT 04/03 A3005 RMK A01 T00370030  RH  095%=      5-min Rain = 0
KCH1 171335Z 27001KT 04/03 A3006 RMK A01 T00370030  RH  095%=      5-min Rain = 0
KCH1 171336Z 26000KT 04/03 A3006 RMK A01 T00370030  RH  095%=      5-min Rain = 0
KCH1 171337Z 00000KT 04/03 A3006 RMK A01 T00360030  RH  095%=      5-min Rain = 0
KCH1 171338Z 00000KT 04/03 A3006 RMK A01 T00360029  RH  095%=      5-min Rain = 0
KCH1 171339Z 27000KT 04/03 A3006 RMK A01 T00370029  RH  095%=      5-min Rain = 0
KCH1 171340Z 28001KT 04/03 A3006 RMK A01 T00370030  RH  095%=      5-min Rain = 0
KCH1 171341Z 29002KT 04/03 A3006 RMK A01 T00370029  RH  095%=      5-min Rain = 0
KCH1 171342Z 28001KT 04/03 A3006 RMK A01 T00370029  RH  094%=      5-min Rain = 0
KCH1 171343Z 25001KT 04/03 A3006 RMK A01 T00370029  RH  094%=      5-min Rain = 0
KCH1 171344Z 23001KT 04/03 A3006 RMK A01 T00380029  RH  094%=      5-min Rain = 0
KCH1 171345Z 23001KT 04/03 A3006 RMK A01 T00370029  RH  094%=      5-min Rain = 0
KCH1 171346Z 25001KT 04/03 A3006 RMK A01 T00380030  RH  095%=      5-min Rain = 0
KCH1 171347Z 26001KT 04/03 A3006 RMK A01 T00380031  RH  095%=      5-min Rain = 0
KCH1 171348Z 28001KT 04/03 A3006 RMK A01 T00390031  RH  095%=      5-min Rain = 0
KCH1 171349Z 30002KT 04/03 A3006 RMK A01 T00400032  RH  095%=      5-min Rain = 0
KCH1 171350Z 31002KT 04/03 A3006 RMK A01 T00400032  RH  095%=      5-min Rain = 0
KCH1 171351Z 30002KT 04/03 A3006 RMK A01 T00400032  RH  095%=      5-min Rain = 0
KCH1 171352Z 29002KT 04/03 A3006 RMK A01 T00400033  RH  095%=      5-min Rain = 0
KCH1 171353Z 29002KT 04/03 A3006 RMK A01 T00410033  RH  095%=      5-min Rain = 0
KCH1 171354Z 30002KT 04/03 A3006 RMK A01 T00410034  RH  095%=      5-min Rain = 0
KCH1 171355Z 31002KT 04/03 A3006 RMK A01 T00420034  RH  095%=      5-min Rain = 0
KCH1 171356Z 31002KT 04/04 A3006 RMK A01 T00430035  RH  095%=      5-min Rain = 0
KCH1 171357Z 31003KT 04/04 A3007 RMK A01 T00440036  RH  095%=      5-min Rain = 0
KCH1 171358Z 31003KT 05/04 A3007 RMK A01 T00450037  RH  095%=      5-min Rain = 0
KCH1 171359Z 31003KT 05/04 A3007 RMK A01 T00450037  RH  095%=      5-min Rain = 0
KCH1 171400Z 31003KT 05/04 A3007 RMK A01 T00470039  RH  095%=      5-min Rain = 0
KCH1 171401Z 31003KT 05/04 A3007 RMK A01 T00480039  RH  094%=      5-min Rain = 0
KCH1 171402Z 31005KT 05/04 A3007 RMK A01 T00490040  RH  094%=      5-min Rain = 0
KCH1 171403Z 31004KT 05/04 A3007 RMK A01 T00500041  RH  094%=      5-min Rain = 0
KCH1 171404Z 31005KT 05/04 A3007 RMK A01 T00510042  RH  094%=      5-min Rain = 0
KCH1 171405Z 31005KT 05/04 A3007 RMK A01 T00520042  RH  093%=      5-min Rain = 0
KCH1 171406Z 30004KT 05/04 A3007 RMK A01 T00530042  RH  093%=      5-min Rain = 0
KCH1 171407Z 31004KT 05/04 A3007 RMK A01 T00530042  RH  093%=      5-min Rain = 0
KCH1 171408Z 31004KT 05/04 A3007 RMK A01 T00540042  RH  092%=      5-min Rain = 0
KCH1 171409Z 30003KT 05/04 A3007 RMK A01 T00540042  RH  092%=      5-min Rain = 0
KCH1 171410Z 31003KT 05/04 A3007 RMK A01 T00540042  RH  092%=      5-min Rain = 0
KCH1 171411Z 31004KT 06/04 A3007 RMK A01 T00550043  RH  092%=      5-min Rain = 0
KCH1 171412Z 30005KT 06/04 A3007 RMK A01 T00550043  RH  092%=      5-min Rain = 0
KCH1 171413Z 30004KT 06/04 A3007 RMK A01 T00560043  RH  092%=      5-min Rain = 0
KCH1 171414Z 30004KT 06/04 A3007 RMK A01 T00560044  RH  092%=      5-min Rain = 0
KCH1 171415Z 29004KT 06/04 A3007 RMK A01 T00570044  RH  092%=      5-min Rain = 0
KCH1 171416Z 29002KT 06/04 A3007 RMK A01 T00570044  RH  091%=      5-min Rain = 0
KCH1 171417Z 28002KT 06/04 A3007 RMK A01 T00570044  RH  091%=      5-min Rain = 0
KCH1 171418Z 29002KT 06/05 A3007 RMK A01 T00580045  RH  091%=      5-min Rain = 0
KCH1 171419Z 27002KT 06/05 A3007 RMK A01 T00590045  RH  091%=      5-min Rain = 0
KCH1 171420Z 27002KT 06/04 A3007 RMK A01 T00590043  RH  090%=      5-min Rain = 0
KCH1 171421Z 26002KT 06/04 A3007 RMK A01 T00590043  RH  089%=      5-min Rain = 0
KCH1 171422Z 26001KT 06/04 A3007 RMK A01 T00600043  RH  089%=      5-min Rain = 0
KCH1 171423Z 23001KT 06/04 A3007 RMK A01 T00600044  RH  089%=      5-min Rain = 0
KCH1 171424Z 24001KT 06/05 A3007 RMK A01 T00610045  RH  089%=      5-min Rain = 0
KCH1 171425Z 26001KT 06/05 A3007 RMK A01 T00620045  RH  089%=      5-min Rain = 0
KCH1 171426Z 25001KT 06/04 A3007 RMK A01 T00620042  RH  088%=      5-min Rain = 0
KCH1 171427Z 25001KT 06/04 A3007 RMK A01 T00620042  RH  088%=      5-min Rain = 0
KCH1 171428Z 27001KT 06/04 A3007 RMK A01 T00620042  RH  087%=      5-min Rain = 0
KCH1 171429Z 28000KT 06/04 A3007 RMK A01 T00620042  RH  087%=      5-min Rain = 0
KCH1 171430Z 28001KT 06/04 A3007 RMK A01 T00620043  RH  088%=      5-min Rain = 0
KCH1 171431Z 29002KT 06/04 A3007 RMK A01 T00620042  RH  087%=      5-min Rain = 0
KCH1 171432Z 30002KT 06/04 A3007 RMK A01 T00620041  RH  087%=      5-min Rain = 0
KCH1 171433Z 32002KT 06/04 A3007 RMK A01 T00620042  RH  087%=      5-min Rain = 0
KCH1 171434Z 32001KT 06/04 A3007 RMK A01 T00630042  RH  087%=      5-min Rain = 0
KCH1 171435Z 32002KT 06/05 A3007 RMK A01 T00640045  RH  088%=      5-min Rain = 0
KCH1 171436Z 33002KT 06/04 A3007 RMK A01 T00640044  RH  087%=      5-min Rain = 0
KCH1 171437Z 34002KT 06/04 A3007 RMK A01 T00640043  RH  087%=      5-min Rain = 0
KCH1 171438Z 34002KT 07/05 A3007 RMK A01 T00650045  RH  087%=      5-min Rain = 0
KCH1 171439Z 33001KT 07/05 A3007 RMK A01 T00660046  RH  087%=      5-min Rain = 0
KCH1 171440Z 00000KT 07/05 A3007 RMK A01 T00670046  RH  086%=      5-min Rain = 0
KCH1 171441Z 00000KT 07/05 A3007 RMK A01 T00680045  RH  085%=      5-min Rain = 0
KCH1 171442Z 00000KT 07/05 A3007 RMK A01 T00690045  RH  085%=      5-min Rain = 0
KCH1 171443Z 18000KT 07/05 A3007 RMK A01 T00710046  RH  084%=      5-min Rain = 0
KCH1 171444Z 23000KT 07/05 A3007 RMK A01 T00720047  RH  084%=      5-min Rain = 0
KCH1 171445Z 28001KT 07/05 A3007 RMK A01 T00730046  RH  083%=      5-min Rain = 0
KCH1 171446Z 29001KT 07/05 A3007 RMK A01 T00730046  RH  083%=      5-min Rain = 0
KCH1 171447Z 29000KT 07/05 A3007 RMK A01 T00730046  RH  083%=      5-min Rain = 0
KCH1 171448Z 24000KT 07/05 A3007 RMK A01 T00730048  RH  084%=      5-min Rain = 0
KCH1 171449Z 26000KT 07/05 A3007 RMK A01 T00740047  RH  083%=      5-min Rain = 0
KCH1 171450Z 26000KT 07/05 A3007 RMK A01 T00740046  RH  082%=      5-min Rain = 0
KCH1 171451Z 27001KT 08/05 A3007 RMK A01 T00750046  RH  082%=      5-min Rain = 0
KCH1 171452Z 29001KT 08/05 A3007 RMK A01 T00750046  RH  082%=      5-min Rain = 0
KCH1 171453Z 29000KT 08/05 A3007 RMK A01 T00750048  RH  083%=      5-min Rain = 0
KCH1 171454Z 00000KT 08/05 A3007 RMK A01 T00760047  RH  082%=      5-min Rain = 0
KCH1 171455Z 29000KT 08/05 A3008 RMK A01 T00770047  RH  081%=      5-min Rain = 0
KCH1 171456Z 29001KT 08/05 A3008 RMK A01 T00770047  RH  081%=      5-min Rain = 0
KCH1 171457Z 30002KT 08/05 A3008 RMK A01 T00780048  RH  081%=      5-min Rain = 0
KCH1 171458Z 31001KT 08/05 A3008 RMK A01 T00780048  RH  081%=      5-min Rain = 0
KCH1 171459Z 28001KT 08/05 A3008 RMK A01 T00790048  RH  081%=      5-min Rain = 0
KCH1 171500Z 27001KT 08/05 A3008 RMK A01 T00800050  RH  081%=      5-min Rain = 0
KCH1 171501Z 27002KT 08/05 A3008 RMK A01 T00810052  RH  082%=      5-min Rain = 0
KCH1 171502Z 28003KT 08/05 A3008 RMK A01 T00820049  RH  080%=      5-min Rain = 0
KCH1 171503Z 26002KT 08/05 A3008 RMK A01 T00820049  RH  080%=      5-min Rain = 0
KCH1 171504Z 26003KT 08/05 A3008 RMK A01 T00820048  RH  079%=      5-min Rain = 0
KCH1 171505Z 27002KT 08/05 A3008 RMK A01 T00820048  RH  079%=      5-min Rain = 0
KCH1 171506Z 29003KT 08/05 A3008 RMK A01 T00820050  RH  080%=      5-min Rain = 0
KCH1 171507Z 29004KT 08/05 A3008 RMK A01 T00840051  RH  080%=      5-min Rain = 0
KCH1 171508Z 29004KT 08/05 A3008 RMK A01 T00830049  RH  079%=      5-min Rain = 0
KCH1 171509Z 29004KT 08/05 A3008 RMK A01 T00820049  RH  079%=      5-min Rain = 0
KCH1 171510Z 29005KT 08/05 A3008 RMK A01 T00820050  RH  080%=      5-min Rain = 0
KCH1 171511Z 29004KT 08/05 A3008 RMK A01 T00820049  RH  080%=      5-min Rain = 0
KCH1 171512Z 29004KT 08/05 A3008 RMK A01 T00830050  RH  080%=      5-min Rain = 0
KCH1 171513Z 29003KT 08/05 A3008 RMK A01 T00840051  RH  080%=      5-min Rain = 0
KCH1 171514Z 28003KT 09/05 A3008 RMK A01 T00860053  RH  080%=      5-min Rain = 0
KCH1 171515Z 28004KT 09/05 A3008 RMK A01 T00870052  RH  079%=      5-min Rain = 0
KCH1 171516Z 29003KT 09/05 A3008 RMK A01 T00880052  RH  078%=      5-min Rain = 0
KCH1 171517Z 30004KT 09/05 A3008 RMK A01 T00890052  RH  078%=      5-min Rain = 0
KCH1 171518Z 30004KT 09/05 A3008 RMK A01 T00890051  RH  077%=      5-min Rain = 0
KCH1 171519Z 30004KT 09/05 A3008 RMK A01 T00910053  RH  077%=      5-min Rain = 0
KCH1 171520Z 32006KT 09/05 A3008 RMK A01 T00930054  RH  077%=      5-min Rain = 0
KCH1 171521Z 32005KT 09/05 A3008 RMK A01 T00940054  RH  076%=      5-min Rain = 0
KCH1 171522Z 33004KT 10/06 A3008 RMK A01 T00970057  RH  076%=      5-min Rain = 0
KCH1 171523Z 32004KT 10/06 A3008 RMK A01 T00990057  RH  075%=      5-min Rain = 0
KCH1 171524Z 30004KT 10/06 A3008 RMK A01 T01010059  RH  075%=      5-min Rain = 0
KCH1 171525Z 30005KT 10/06 A3008 RMK A01 T01030059  RH  074%=      5-min Rain = 0
KCH1 171526Z 32005KT 10/06 A3008 RMK A01 T01040057  RH  073%=      5-min Rain = 0
KCH1 171527Z 32005KT 10/06 A3008 RMK A01 T01030057  RH  073%=      5-min Rain = 0
KCH1 171528Z 32005KT 10/06 A3008 RMK A01 T01030058  RH  073%=      5-min Rain = 0
KCH1 171529Z 31006KT 10/06 A3008 RMK A01 T01040058  RH  073%=      5-min Rain = 0
KCH1 171530Z 34007G13KT 11/06 A3008 RMK A01 T01050058  RH  073%=      5-min Rain = 0
KCH1 171531Z 35008KT 11/06 A3008 RMK A01 T01070057  RH  071%=      5-min Rain = 0
KCH1 171532Z 00008KT 11/06 A3008 RMK A01 T01110057  RH  069%=      5-min Rain = 0
KCH1 171533Z 01008KT 11/05 A3008 RMK A01 T01140054  RH  066%=      5-min Rain = 0
KCH1 171534Z 36007KT 12/05 A3008 RMK A01 T01150053  RH  065%=      5-min Rain = 0
KCH1 171535Z 00007KT 12/05 A3008 RMK A01 T01160052  RH  065%=      5-min Rain = 0
KCH1 171536Z 01006G11KT 12/05 A3008 RMK A01 T01180054  RH  065%=      5-min Rain = 0
KCH1 171537Z 35009KT 12/05 A3008 RMK A01 T01190051  RH  063%=      5-min Rain = 0
KCH1 171538Z 35009KT 12/05 A3008 RMK A01 T01170049  RH  063%=      5-min Rain = 0
KCH1 171539Z 00008KT 12/05 A3008 RMK A01 T01160049  RH  063%=      5-min Rain = 0
KCH1 171540Z 36007KT 12/05 A3008 RMK A01 T01160050  RH  064%=      5-min Rain = 0
KCH1 171541Z 00005KT 12/05 A3009 RMK A01 T01170050  RH  064%=      5-min Rain = 0
KCH1 171542Z 01005KT 12/05 A3009 RMK A01 T01180053  RH  064%=      5-min Rain = 0
KCH1 171543Z 36007KT 12/05 A3009 RMK A01 T01210054  RH  064%=      5-min Rain = 0
KCH1 171544Z 36008KT 12/05 A3009 RMK A01 T01220052  RH  062%=      5-min Rain = 0
KCH1 171545Z 35008KT 12/05 A3009 RMK A01 T01220051  RH  062%=      5-min Rain = 0
KCH1 171546Z 00008KT 12/05 A3009 RMK A01 T01200048  RH  062%=      5-min Rain = 0
KCH1 171547Z 35006KT 12/05 A3009 RMK A01 T01190048  RH  062%=      5-min Rain = 0
KCH1 171548Z 01005G10KT 12/05 A3009 RMK A01 T01190052  RH  063%=      5-min Rain = 0
KCH1 171549Z 01008KT 12/05 A3009 RMK A01 T01210050  RH  062%=      5-min Rain = 0
KCH1 171550Z 02010KT 12/05 A3009 RMK A01 T01200049  RH  062%=      5-min Rain = 0
KCH1 171551Z 01007KT 12/05 A3009 RMK A01 T01200048  RH  061%=      5-min Rain = 0
KCH1 171552Z 36007KT 12/05 A3009 RMK A01 T01210049  RH  061%=      5-min Rain = 0
KCH1 171553Z 36007G12KT 12/05 A3009 RMK A01 T01230050  RH  061%=      5-min Rain = 0
KCH1 171554Z 01009KT 13/05 A3009 RMK A01 T01250050  RH  060%=      5-min Rain = 0
KCH1 171555Z 01010KT 13/05 A3009 RMK A01 T01260047  RH  059%=      5-min Rain = 0
KCH1 171556Z 01008KT 13/05 A3009 RMK A01 T01260046  RH  058%=      5-min Rain = 0
KCH1 171557Z 02008KT 13/05 A3009 RMK A01 T01260045  RH  058%=      5-min Rain = 0
KCH1 171558Z 01008G16KT 13/04 A3009 RMK A01 T01260044  RH  057%=      5-min Rain = 0
KCH1 171559Z 00010KT 13/04 A3009 RMK A01 T01270042  RH  056%=      5-min Rain = 0
KCH1 171600Z 01009KT 13/04 A3009 RMK A01 T01250041  RH  056%=      5-min Rain = 0
KCH1 171601Z 02007KT 13/04 A3009 RMK A01 T01260041  RH  056%=      5-min Rain = 0
KCH1 171602Z 02011KT 13/04 A3009 RMK A01 T01270040  RH  056%=      5-min Rain = 0
KCH1 171603Z 02011KT 13/04 A3009 RMK A01 T01270039  RH  055%=      5-min Rain = 0
KCH1 171604Z 01012KT 13/04 A3009 RMK A01 T01270038  RH  055%=      5-min Rain = 0
KCH1 171605Z 02011KT 13/04 A3009 RMK A01 T01270038  RH  055%=      5-min Rain = 0
KCH1 171606Z 01011KT 13/04 A3009 RMK A01 T01270039  RH  055%=      5-min Rain = 0
KCH1 171607Z 01012KT 13/04 A3009 RMK A01 T01270037  RH  054%=      5-min Rain = 0
KCH1 171608Z 01012KT 13/04 A3009 RMK A01 T01260037  RH  055%=      5-min Rain = 0
KCH1 171609Z 02011G16KT 13/04 A3009 RMK A01 T01250036  RH  055%=      5-min Rain = 0
KCH1 171610Z 03010G16KT 13/04 A3009 RMK A01 T01250036  RH  055%=      5-min Rain = 0
KCH1 171611Z 02012KT 13/04 A3009 RMK A01 T01250036  RH  054%=      5-min Rain = 0
KCH1 171612Z 01012KT 13/04 A3009 RMK A01 T01250036  RH  055%=      5-min Rain = 0
KCH1 171613Z 01012KT 13/04 A3009 RMK A01 T01250036  RH  054%=      5-min Rain = 0
KCH1 171614Z 02008KT 12/04 A3009 RMK A01 T01240036  RH  055%=      5-min Rain = 0
KCH1 171615Z 04007G12KT 13/04 A3009 RMK A01 T01250038  RH  055%=      5-min Rain = 0
KCH1 171616Z 03011KT 13/04 A3009 RMK A01 T01290040  RH  055%=      5-min Rain = 0
KCH1 171617Z 04009KT 13/04 A3009 RMK A01 T01320041  RH  054%=      5-min Rain = 0
KCH1 171618Z 04010KT 13/04 A3009 RMK A01 T01330040  RH  053%=      5-min Rain = 0
KCH1 171619Z 03009KT 13/04 A3009 RMK A01 T01330039  RH  053%=      5-min Rain = 0
KCH1 171620Z 03010KT 13/04 A3009 RMK A01 T01320039  RH  053%=      5-min Rain = 0
KCH1 171621Z 03010KT 13/04 A3009 RMK A01 T01320039  RH  053%=      5-min Rain = 0
KCH1 171622Z 03009KT 13/04 A3009 RMK A01 T01330040  RH  054%=      5-min Rain = 0
KCH1 171623Z 00011KT 13/04 A301 RMK A01 T01340040  RH  053%=      5-min Rain = 0
KCH1 171624Z 01009KT 13/04 A301 RMK A01 T01330039  RH  053%=      5-min Rain = 0
KCH1 171625Z 00012KT 13/04 A301 RMK A01 T01320038  RH  053%=      5-min Rain = 0
KCH1 171626Z 02011KT 13/04 A301 RMK A01 T01310038  RH  053%=      5-min Rain = 0
KCH1 171627Z 04007KT 13/04 A301 RMK A01 T01310039  RH  054%=      5-min Rain = 0
KCH1 171628Z 03010G15KT 13/04 A301 RMK A01 T01340042  RH  054%=      5-min Rain = 0
KCH1 171629Z 03012KT 14/04 A301 RMK A01 T01360040  RH  052%=      5-min Rain = 0
KCH1 171630Z 02009G15KT 14/04 A301 RMK A01 T01360040  RH  052%=      5-min Rain = 0
KCH1 171631Z 02011KT 14/04 A3011 RMK A01 T01360041  RH  052%=      5-min Rain = 0
KCH1 171632Z 03010KT 14/04 A3011 RMK A01 T01360039  RH  052%=      5-min Rain = 0
KCH1 171633Z 02011KT 14/04 A301 RMK A01 T01350039  RH  052%=      5-min Rain = 0
KCH1 171634Z 01013KT 13/04 A3011 RMK A01 T01340038  RH  052%=      5-min Rain = 0
KCH1 171635Z 01010KT 13/04 A3011 RMK A01 T01330037  RH  052%=      5-min Rain = 0
KCH1 171636Z 01011KT 13/04 A3011 RMK A01 T01330038  RH  052%=      5-min Rain = 0
KCH1 171637Z 02012KT 13/04 A3011 RMK A01 T01330037  RH  052%=      5-min Rain = 0
KCH1 171638Z 02013KT 13/04 A3011 RMK A01 T01320036  RH  052%=      5-min Rain = 0
KCH1 171639Z 01011KT 13/04 A3011 RMK A01 T01310036  RH  053%=      5-min Rain = 0
KCH1 171640Z 03011KT 13/04 A3011 RMK A01 T01310037  RH  053%=      5-min Rain = 0
KCH1 171641Z 03009KT 13/04 A3011 RMK A01 T01320037  RH  053%=      5-min Rain = 0
KCH1 171642Z 04007KT 13/04 A3011 RMK A01 T01320037  RH  053%=      5-min Rain = 0
KCH1 171643Z 03009KT 14/04 A3011 RMK A01 T01350041  RH  053%=      5-min Rain = 0
KCH1 171644Z 02009G14KT 14/04 A301 RMK A01 T01380042  RH  052%=      5-min Rain = 0
KCH1 171645Z 02009KT 14/04 A301 RMK A01 T01400040  RH  051%=      5-min Rain = 0
KCH1 171646Z 02006KT 14/04 A301 RMK A01 T01390040  RH  051%=      5-min Rain = 0
KCH1 171647Z 01010G15KT 14/04 A301 RMK A01 T01390040  RH  051%=      5-min Rain = 0
KCH1 171648Z 02008KT 14/04 A3011 RMK A01 T01390039  RH  051%=      5-min Rain = 0
KCH1 171649Z 01011KT 14/04 A3011 RMK A01 T01390040  RH  051%=      5-min Rain = 0
KCH1 171650Z 01012KT 14/04 A3011 RMK A01 T01390038  RH  051%=      5-min Rain = 0
KCH1 171651Z 01010KT 14/04 A3011 RMK A01 T01380038  RH  051%=      5-min Rain = 0
KCH1 171652Z 00010KT 14/04 A3011 RMK A01 T01360037  RH  051%=      5-min Rain = 0
KCH1 171653Z 02009KT 14/04 A3011 RMK A01 T01350037  RH  052%=      5-min Rain = 0
KCH1 171654Z 02009KT 13/04 A3011 RMK A01 T01340037  RH  052%=      5-min Rain = 0
KCH1 171655Z 01010KT 14/04 A3011 RMK A01 T01350038  RH  052%=      5-min Rain = 0
KCH1 171656Z 01011KT 14/04 A3011 RMK A01 T01350037  RH  051%=      5-min Rain = 0
KCH1 171657Z 01008KT 14/04 A3011 RMK A01 T01350037  RH  052%=      5-min Rain = 0
KCH1 171658Z 01007KT 14/04 A3011 RMK A01 T01360039  RH  052%=      5-min Rain = 0
KCH1 171659Z 00004KT 14/04 A3011 RMK A01 T01380040  RH  051%=      5-min Rain = 0
KCH1 171700Z 36008G14KT 14/04 A301 RMK A01 T01410041  RH  051%=      5-min Rain = 0
KCH1 171701Z 01009KT 14/04 A301 RMK A01 T01410038  RH  050%=      5-min Rain = 0
KCH1 171702Z 02007KT 14/04 A301 RMK A01 T01400039  RH  051%=      5-min Rain = 0
KCH1 171703Z 36007KT 14/04 A301 RMK A01 T01410041  RH  051%=      5-min Rain = 0
KCH1 171704Z 01007KT 14/04 A301 RMK A01 T01430042  RH  051%=      5-min Rain = 0
KCH1 171705Z 01008KT 15/04 A301 RMK A01 T01450041  RH  050%=      5-min Rain = 0
KCH1 171706Z 01007G13KT 15/04 A301 RMK A01 T01450039  RH  049%=      5-min Rain = 0
KCH1 171707Z 02008KT 14/04 A301 RMK A01 T01440038  RH  049%=      5-min Rain = 0
KCH1 171708Z 01006KT 14/04 A301 RMK A01 T01430040  RH  050%=      5-min Rain = 0
KCH1 171709Z 02008G14KT 15/04 A301 RMK A01 T01450041  RH  050%=      5-min Rain = 0
KCH1 171710Z 02010KT 15/04 A301 RMK A01 T01460040  RH  049%=      5-min Rain = 0
KCH1 171711Z 02009KT 15/04 A301 RMK A01 T01460039  RH  048%=      5-min Rain = 0
KCH1 171712Z 02010KT 15/04 A301 RMK A01 T01460039  RH  049%=      5-min Rain = 0
KCH1 171713Z 00009KT 15/04 A301 RMK A01 T01450039  RH  049%=      5-min Rain = 0
KCH1 171714Z 01010KT 15/04 A301 RMK A01 T01450039  RH  049%=      5-min Rain = 0
KCH1 171715Z 02009G15KT 15/04 A301 RMK A01 T01460038  RH  049%=      5-min Rain = 0
KCH1 171716Z 02009KT 15/04 A301 RMK A01 T01460039  RH  049%=      5-min Rain = 0
KCH1 171717Z 03008KT 15/04 A301 RMK A01 T01460039  RH  049%=      5-min Rain = 0
KCH1 171718Z 04009G14KT 15/04 A301 RMK A01 T01470040  RH  049%=      5-min Rain = 0
KCH1 171719Z 03007G12KT 15/04 A301 RMK A01 T01500043  RH  049%=      5-min Rain = 0
KCH1 171720Z 03010KT 15/04 A301 RMK A01 T01520040  RH  047%=      5-min Rain = 0
KCH1 171721Z 02006KT 15/04 A301 RMK A01 T01510040  RH  047%=      5-min Rain = 0
KCH1 171722Z 04009KT 15/04 A301 RMK A01 T01500040  RH  048%=      5-min Rain = 0
KCH1 171723Z 01009KT 15/04 A301 RMK A01 T01520041  RH  048%=      5-min Rain = 0
KCH1 171724Z 03009KT 15/04 A301 RMK A01 T01530041  RH  047%=      5-min Rain = 0
KCH1 171725Z 01008KT 15/04 A301 RMK A01 T01520038  RH  046%=      5-min Rain = 0
KCH1 171726Z 02008KT 15/04 A301 RMK A01 T01500038  RH  047%=      5-min Rain = 0
KCH1 171727Z 01010KT 15/04 A301 RMK A01 T01490039  RH  048%=      5-min Rain = 0
KCH1 171728Z 00007KT 15/04 A301 RMK A01 T01500040  RH  048%=      5-min Rain = 0
KCH1 171729Z 36009G14KT 15/04 A301 RMK A01 T01510041  RH  048%=      5-min Rain = 0
KCH1 171730Z 36010KT 15/04 A301 RMK A01 T01520041  RH  047%=      5-min Rain = 0
KCH1 171731Z 35010KT 15/04 A301 RMK A01 T01530039  RH  047%=      5-min Rain = 0
KCH1 171732Z 00011KT 15/04 A301 RMK A01 T01510039  RH  047%=      5-min Rain = 0
KCH1 171733Z 01009KT 15/04 A301 RMK A01 T01510040  RH  047%=      5-min Rain = 0
KCH1 171734Z 02011KT 15/04 A301 RMK A01 T01530041  RH  047%=      5-min Rain = 0
KCH1 171735Z 36011KT 15/04 A301 RMK A01 T01530039  RH  046%=      5-min Rain = 0
KCH1 171736Z 01009G14KT 15/04 A301 RMK A01 T01520039  RH  047%=      5-min Rain = 0
KCH1 171737Z 36011G16KT 15/04 A301 RMK A01 T01520040  RH  047%=      5-min Rain = 0
KCH1 171738Z 35012G17KT 15/04 A301 RMK A01 T01530039  RH  047%=      5-min Rain = 0
KCH1 171739Z 01014KT 15/04 A301 RMK A01 T01520038  RH  047%=      5-min Rain = 0
KCH1 171740Z 00009KT 15/04 A301 RMK A01 T01500038  RH  047%=      5-min Rain = 0
KCH1 171741Z 01011KT 15/04 A301 RMK A01 T01510041  RH  048%=      5-min Rain = 0
KCH1 171742Z 00012KT 15/04 A301 RMK A01 T01530040  RH  047%=      5-min Rain = 0
KCH1 171743Z 01016KT 15/04 A301 RMK A01 T01520038  RH  046%=      5-min Rain = 0
KCH1 171744Z 01010G15KT 15/04 A301 RMK A01 T01500038  RH  047%=      5-min Rain = 0
KCH1 171745Z 03009G16KT 15/04 A301 RMK A01 T01510040  RH  047%=      5-min Rain = 0
KCH1 171746Z 01011KT 15/04 A301 RMK A01 T01530039  RH  047%=      5-min Rain = 0
KCH1 171747Z 36012KT 15/04 A301 RMK A01 T01520038  RH  046%=      5-min Rain = 0
KCH1 171748Z 01008KT 15/04 A301 RMK A01 T01500037  RH  047%=      5-min Rain = 0
KCH1 171749Z 01007KT 15/04 A301 RMK A01 T01510040  RH  048%=      5-min Rain = 0
KCH1 171750Z 00008G13KT 16/04 A301 RMK A01 T01550042  RH  047%=      5-min Rain = 0
KCH1 171751Z 00008KT 16/04 A301 RMK A01 T01560039  RH  046%=      5-min Rain = 0
KCH1 171752Z 35011G16KT 16/04 A301 RMK A01 T01550038  RH  045%=      5-min Rain = 0
KCH1 171753Z 01012G17KT 15/04 A301 RMK A01 T01530037  RH  046%=      5-min Rain = 0
KCH1 171754Z 02009KT 15/04 A301 RMK A01 T01520038  RH  046%=      5-min Rain = 0
KCH1 171755Z 00012KT 15/04 A301 RMK A01 T01540039  RH  046%=      5-min Rain = 0
KCH1 171756Z 01010KT 15/04 A301 RMK A01 T01540039  RH  046%=      5-min Rain = 0
KCH1 171757Z 36010KT 15/04 A301 RMK A01 T01540039  RH  046%=      5-min Rain = 0
KCH1 171758Z 36009KT 16/04 A301 RMK A01 T01560040  RH  046%=      5-min Rain = 0
KCH1 171759Z 35008KT 16/04 A301 RMK A01 T01560038  RH  046%=      5-min Rain = 0
KCH1 171800Z 36005KT 16/04 A301 RMK A01 T01550040  RH  046%=      5-min Rain = 0
KCH1 171801Z 01009KT 16/04 A301 RMK A01 T01570041  RH  046%=      5-min Rain = 0
KCH1 171802Z 01013KT 16/04 A3009 RMK A01 T01580040  RH  045%=      5-min Rain = 0
KCH1 171803Z 02008G13KT 16/04 A3009 RMK A01 T01580038  RH  045%=      5-min Rain = 0
KCH1 171804Z 00005KT 16/04 A3009 RMK A01 T01580039  RH  045%=      5-min Rain = 0
KCH1 171805Z 34009KT 16/04 A3009 RMK A01 T01590040  RH  045%=      5-min Rain = 0
KCH1 171806Z 00010KT 16/04 A3009 RMK A01 T01600039  RH  044%=      5-min Rain = 0
KCH1 171807Z 01011G17KT 16/04 A301 RMK A01 T01600039  RH  044%=      5-min Rain = 0
KCH1 171808Z 02009G14KT 16/04 A301 RMK A01 T01590039  RH  045%=      5-min Rain = 0
KCH1 171809Z 01009KT 16/04 A301 RMK A01 T01600040  RH  045%=      5-min Rain = 0
KCH1 171810Z 02011G16KT 16/04 A301 RMK A01 T01620040  RH  044%=      5-min Rain = 0
KCH1 171811Z 01010KT 16/04 A301 RMK A01 T01590036  RH  044%=      5-min Rain = 0
KCH1 171812Z 02010KT 16/04 A301 RMK A01 T01560036  RH  045%=      5-min Rain = 0
KCH1 171813Z 01010KT 16/04 A3009 RMK A01 T01550037  RH  045%=      5-min Rain = 0
KCH1 171814Z 02010G15KT 16/04 A3009 RMK A01 T01550037  RH  045%=      5-min Rain = 0
KCH1 171815Z 03008G13KT 16/04 A301 RMK A01 T01560039  RH  046%=      5-min Rain = 0
KCH1 171816Z 01013KT 16/04 A301 RMK A01 T01600041  RH  045%=      5-min Rain = 0
KCH1 171817Z 01009KT 16/04 A301 RMK A01 T01600038  RH  044%=      5-min Rain = 0
KCH1 171818Z 03008KT 16/04 A301 RMK A01 T01600040  RH  045%=      5-min Rain = 0
KCH1 171819Z 02010G16KT 16/04 A301 RMK A01 T01610039  RH  044%=      5-min Rain = 0
KCH1 171820Z 02009G15KT 16/04 A3009 RMK A01 T01610040  RH  045%=      5-min Rain = 0
KCH1 171821Z 03010G15KT 16/04 A3009 RMK A01 T01620040  RH  044%=      5-min Rain = 0
KCH1 171822Z 03009G14KT 16/04 A3009 RMK A01 T01630039  RH  044%=      5-min Rain = 0
KCH1 171823Z 04006KT 16/04 A3009 RMK A01 T01620039  RH  044%=      5-min Rain = 0
KCH1 171824Z 05012KT 16/04 A3009 RMK A01 T01620040  RH  044%=      5-min Rain = 0
KCH1 171825Z 04008G13KT 16/04 A3009 RMK A01 T01610038  RH  044%=      5-min Rain = 0
KCH1 171826Z 02008KT 16/04 A3009 RMK A01 T01610042  RH  045%=      5-min Rain = 0
KCH1 171827Z 02007KT 16/04 A3009 RMK A01 T01640042  RH  044%=      5-min Rain = 0
KCH1 171828Z 01011KT 17/04 A3009 RMK A01 T01670041  RH  043%=      5-min Rain = 0
KCH1 171829Z 36010KT 16/04 A3009 RMK A01 T01630037  RH  043%=      5-min Rain = 0
KCH1 171830Z 02012KT 16/04 A3009 RMK A01 T01600037  RH  044%=      5-min Rain = 0
KCH1 171831Z 02009KT 16/04 A3009 RMK A01 T01590038  RH  044%=      5-min Rain = 0
KCH1 171832Z 03008KT 16/04 A3009 RMK A01 T01590038  RH  044%=      5-min Rain = 0
KCH1 171833Z 04008KT 16/04 A3008 RMK A01 T01600039  RH  045%=      5-min Rain = 0
KCH1 171834Z 02009KT 16/04 A3008 RMK A01 T01640040  RH  044%=      5-min Rain = 0
KCH1 171835Z 01007G13KT 17/04 A3008 RMK A01 T01650040  RH  043%=      5-min Rain = 0
KCH1 171836Z 01008G13KT 17/04 A3008 RMK A01 T01660039  RH  043%=      5-min Rain = 0
KCH1 171837Z 04009KT 16/04 A3008 RMK A01 T01640039  RH  043%=      5-min Rain = 0
KCH1 171838Z 04009KT 16/04 A3008 RMK A01 T01640039  RH  043%=      5-min Rain = 0
KCH1 171839Z 03009KT 16/04 A3008 RMK A01 T01640039  RH  043%=      5-min Rain = 0
KCH1 171840Z 01011G16KT 16/04 A3008 RMK A01 T01640040  RH  044%=      5-min Rain = 0
KCH1 171841Z 01010KT 17/04 A3008 RMK A01 T01650039  RH  043%=      5-min Rain = 0
KCH1 171842Z 01011KT 16/04 A3008 RMK A01 T01640038  RH  043%=      5-min Rain = 0
KCH1 171843Z 02010G15KT 16/04 A3008 RMK A01 T01620037  RH  043%=      5-min Rain = 0
KCH1 171844Z 01013G18KT 16/04 A3008 RMK A01 T01600037  RH  044%=      5-min Rain = 0
KCH1 171845Z 01011KT 16/04 A3007 RMK A01 T01590038  RH  044%=      5-min Rain = 0
KCH1 171846Z 03008G13KT 16/04 A3007 RMK A01 T01590039  RH  045%=      5-min Rain = 0
KCH1 171847Z 04010KT 16/04 A3007 RMK A01 T01600039  RH  044%=      5-min Rain = 0
KCH1 171848Z 03009KT 16/04 A3007 RMK A01 T01600038  RH  044%=      5-min Rain = 0
KCH1 171849Z 36011KT 16/04 A3007 RMK A01 T01610040  RH  045%=      5-min Rain = 0
KCH1 171850Z 36014KT 16/04 A3007 RMK A01 T01620039  RH  044%=      5-min Rain = 0
KCH1 171851Z 01013KT 16/04 A3007 RMK A01 T01630039  RH  044%=      5-min Rain = 0
KCH1 171852Z 02009G14KT 16/04 A3007 RMK A01 T01630040  RH  044%=      5-min Rain = 0
KCH1 171853Z 02010G15KT 16/04 A3007 RMK A01 T01640041  RH  044%=      5-min Rain = 0
KCH1 171854Z 02012KT 17/04 A3007 RMK A01 T01650040  RH  043%=      5-min Rain = 0
KCH1 171855Z 01013KT 16/04 A3007 RMK A01 T01640040  RH  044%=      5-min Rain = 0
KCH1 171856Z 01010KT 16/04 A3006 RMK A01 T01630039  RH  044%=      5-min Rain = 0
KCH1 171857Z 03008G15KT 16/04 A3006 RMK A01 T01640042  RH  044%=      5-min Rain = 0
KCH1 171858Z 00012KT 17/04 A3006 RMK A01 T01660041  RH  043%=      5-min Rain = 0
KCH1 171859Z 02011G16KT 16/04 A3006 RMK A01 T01640039  RH  043%=      5-min Rain = 0
KCH1 171900Z 00008G14KT 16/04 A3006 RMK A01 T01630041  RH  044%=      5-min Rain = 0
KCH1 171901Z 02009KT 16/04 A3006 RMK A01 T01640042  RH  044%=      5-min Rain = 0
KCH1 171902Z 03012KT 17/04 A3006 RMK A01 T01660042  RH  044%=      5-min Rain = 0
KCH1 171903Z 01010KT 17/04 A3006 RMK A01 T01660041  RH  043%=      5-min Rain = 0
KCH1 171904Z 00012G17KT 17/04 A3006 RMK A01 T01660041  RH  043%=      5-min Rain = 0
KCH1 171905Z 01013KT 17/04 A3006 RMK A01 T01650041  RH  043%=      5-min Rain = 0
KCH1 171906Z 00012KT 17/04 A3006 RMK A01 T01650040  RH  043%=      5-min Rain = 0
KCH1 171907Z 01009KT 16/04 A3006 RMK A01 T01640040  RH  044%=      5-min Rain = 0
KCH1 171908Z 01010KT 17/04 A3006 RMK A01 T01650043  RH  044%=      5-min Rain = 0
KCH1 171909Z 00012KT 17/04 A3006 RMK A01 T01670042  RH  043%=      5-min Rain = 0
KCH1 171910Z 02012KT 17/04 A3006 RMK A01 T01670041  RH  043%=      5-min Rain = 0
KCH1 171911Z 02009KT 17/04 A3006 RMK A01 T01670040  RH  043%=      5-min Rain = 0
KCH1 171912Z 02008G13KT 17/04 A3006 RMK A01 T01670041  RH  043%=      5-min Rain = 0
KCH1 171913Z 02011G17KT 17/04 A3006 RMK A01 T01680042  RH  043%=      5-min Rain = 0
KCH1 171914Z 01008G13KT 17/04 A3006 RMK A01 T01690041  RH  043%=      5-min Rain = 0
KCH1 171915Z 02011KT 17/04 A3006 RMK A01 T01700042  RH  043%=      5-min Rain = 0
KCH1 171916Z 03012G18KT 17/04 A3006 RMK A01 T01710042  RH  042%=      5-min Rain = 0
KCH1 171917Z 02012KT 17/04 A3006 RMK A01 T01710041  RH  042%=      5-min Rain = 0
KCH1 171918Z 01009G14KT 17/04 A3006 RMK A01 T01700041  RH  042%=      5-min Rain = 0
KCH1 171919Z 01012KT 17/04 A3006 RMK A01 T01690041  RH  043%=      5-min Rain = 0
KCH1 171920Z 35013G18KT 17/04 A3006 RMK A01 T01690042  RH  043%=      5-min Rain = 0
KCH1 171921Z 00010G15KT 17/04 A3005 RMK A01 T01690041  RH  043%=      5-min Rain = 0
KCH1 171922Z 02009KT 17/04 A3005 RMK A01 T01690043  RH  043%=      5-min Rain = 0
KCH1 171923Z 01012KT 17/04 A3005 RMK A01 T01700043  RH  043%=      5-min Rain = 0
KCH1 171924Z 03008G14KT 17/04 A3005 RMK A01 T01720044  RH  043%=      5-min Rain = 0
KCH1 171925Z 00012KT 17/05 A3005 RMK A01 T01740045  RH  042%=      5-min Rain = 0
KCH1 171926Z 36010KT 17/04 A3006 RMK A01 T01740043  RH  042%=      5-min Rain = 0
KCH1 171927Z 01012KT 17/04 A3005 RMK A01 T01730043  RH  042%=      5-min Rain = 0
KCH1 171928Z 01010KT 17/04 A3005 RMK A01 T01730043  RH  042%=      5-min Rain = 0
KCH1 171929Z 01013KT 17/04 A3006 RMK A01 T01720043  RH  042%=      5-min Rain = 0
KCH1 171930Z 36013KT 17/04 A3006 RMK A01 T01710041  RH  042%=      5-min Rain = 0
KCH1 171931Z 00009G14KT 17/04 A3005 RMK A01 T01690041  RH  042%=      5-min Rain = 0
KCH1 171932Z 35008G13KT 17/04 A3005 RMK A01 T01700044  RH  043%=      5-min Rain = 0
KCH1 171933Z 01010G15KT 17/05 A3005 RMK A01 T01740046  RH  043%=      5-min Rain = 0
KCH1 171934Z 01011G18KT 18/04 A3005 RMK A01 T01750042  RH  041%=      5-min Rain = 0
KCH1 171935Z 02012KT 17/04 A3005 RMK A01 T01730041  RH  042%=      5-min Rain = 0
KCH1 171936Z 02010KT 17/04 A3005 RMK A01 T01720042  RH  042%=      5-min Rain = 0
KCH1 171937Z 02010KT 17/04 A3005 RMK A01 T01730042  RH  042%=      5-min Rain = 0
KCH1 171938Z 01012G17KT 17/04 A3005 RMK A01 T01740042  RH  042%=      5-min Rain = 0
KCH1 171939Z 01011KT 17/04 A3005 RMK A01 T01740041  RH  041%=      5-min Rain = 0
KCH1 171940Z 02009KT 17/04 A3005 RMK A01 T01730042  RH  042%=      5-min Rain = 0
KCH1 171941Z 03007G13KT 17/04 A3005 RMK A01 T01740043  RH  042%=      5-min Rain = 0
KCH1 171942Z 03010KT 18/04 A3005 RMK A01 T01760043  RH  041%=      5-min Rain = 0
KCH1 171943Z 03012KT 18/04 A3005 RMK A01 T01770043  RH  041%=      5-min Rain = 0
KCH1 171944Z 03012KT 18/04 A3005 RMK A01 T01770042  RH  041%=      5-min Rain = 0
KCH1 171945Z 02009KT 18/04 A3005 RMK A01 T01760043  RH  041%=      5-min Rain = 0
KCH1 171946Z 02008KT 18/04 A3005 RMK A01 T01760041  RH  041%=      5-min Rain = 0
KCH1 171947Z 03008KT 18/04 A3005 RMK A01 T01760042  RH  041%=      5-min Rain = 0
KCH1 171948Z 01010KT 18/04 A3005 RMK A01 T01760042  RH  041%=      5-min Rain = 0
KCH1 171949Z 35010KT 18/04 A3005 RMK A01 T01760041  RH  041%=      5-min Rain = 0
KCH1 171950Z 35008KT 17/04 A3005 RMK A01 T01740040  RH  041%=      5-min Rain = 0
KCH1 171951Z 36010KT 17/04 A3005 RMK A01 T01740041  RH  041%=      5-min Rain = 0
KCH1 171952Z 00010KT 17/04 A3005 RMK A01 T01730039  RH  041%=      5-min Rain = 0
KCH1 171953Z 03010G15KT 17/04 A3005 RMK A01 T01720041  RH  042%=      5-min Rain = 0
KCH1 171954Z 04010G15KT 17/04 A3004 RMK A01 T01730042  RH  042%=      5-min Rain = 0
KCH1 171955Z 02011G16KT 18/04 A3004 RMK A01 T01750041  RH  041%=      5-min Rain = 0
KCH1 171956Z 00013KT 18/04 A3005 RMK A01 T01750040  RH  041%=      5-min Rain = 0
KCH1 171957Z 00012KT 17/04 A3005 RMK A01 T01720038  RH  041%=      5-min Rain = 0
KCH1 171958Z 02010KT 17/04 A3005 RMK A01 T01710039  RH  041%=      5-min Rain = 0
KCH1 171959Z 04010G15KT 17/04 A3005 RMK A01 T01720041  RH  042%=      5-min Rain = 0
KCH1 172000Z 03010G16KT 17/04 A3005 RMK A01 T01740041  RH  041%=      5-min Rain = 0
KCH1 172001Z 04013KT 17/04 A3005 RMK A01 T01740040  RH  041%=      5-min Rain = 0
KCH1 172002Z 03012KT 17/04 A3004 RMK A01 T01730039  RH  041%=      5-min Rain = 0
KCH1 172003Z 02009KT 17/04 A3004 RMK A01 T01740040  RH  041%=      5-min Rain = 0
KCH1 172004Z 02009KT 18/04 A3004 RMK A01 T01750041  RH  041%=      5-min Rain = 0
KCH1 172005Z 03010G16KT 18/04 A3004 RMK A01 T01760040  RH  040%=      5-min Rain = 0
KCH1 172006Z 02010KT 18/04 A3004 RMK A01 T01770041  RH  041%=      5-min Rain = 0
KCH1 172007Z 02008KT 18/04 A3004 RMK A01 T01790042  RH  040%=      5-min Rain = 0
KCH1 172008Z 36007KT 18/04 A3004 RMK A01 T01800043  RH  040%=      5-min Rain = 0
KCH1 172009Z 01010KT 18/04 A3004 RMK A01 T01810040  RH  039%=      5-min Rain = 0
KCH1 172010Z 01008KT 18/04 A3004 RMK A01 T01780039  RH  040%=      5-min Rain = 0
KCH1 172011Z 01009KT 18/04 A3004 RMK A01 T01760038  RH  040%=      5-min Rain = 0
KCH1 172012Z 01009KT 18/04 A3004 RMK A01 T01760040  RH  040%=      5-min Rain = 0
KCH1 172013Z 03009KT 18/04 A3004 RMK A01 T01770039  RH  040%=      5-min Rain = 0
KCH1 172014Z 03008KT 18/04 A3005 RMK A01 T01770041  RH  040%=      5-min Rain = 0
KCH1 172015Z 03009KT 18/04 A3005 RMK A01 T01780040  RH  040%=      5-min Rain = 0
KCH1 172016Z 03012KT 18/04 A3005 RMK A01 T01790040  RH  040%=      5-min Rain = 0
KCH1 172017Z 03011KT 18/04 A3005 RMK A01 T01790040  RH  040%=      5-min Rain = 0
KCH1 172018Z 03011KT 18/04 A3005 RMK A01 T01790041  RH  040%=      5-min Rain = 0
KCH1 172019Z 03011KT 18/04 A3005 RMK A01 T01790040  RH  040%=      5-min Rain = 0
KCH1 172020Z 02008KT 18/04 A3005 RMK A01 T01790040  RH  040%=      5-min Rain = 0
KCH1 172021Z 02006G16KT 18/04 A3005 RMK A01 T01790039  RH  040%=      5-min Rain = 0
KCH1 172022Z 01013G18KT 18/04 A3005 RMK A01 T01790041  RH  040%=      5-min Rain = 0
KCH1 172023Z 01009KT 18/04 A3005 RMK A01 T01790041  RH  040%=      5-min Rain = 0
KCH1 172024Z 01010KT 18/04 A3005 RMK A01 T01800040  RH  040%=      5-min Rain = 0
KCH1 172025Z 00008KT 18/04 A3005 RMK A01 T01800040  RH  040%=      5-min Rain = 0
KCH1 172026Z 35006KT 18/04 A3005 RMK A01 T01790040  RH  040%=      5-min Rain = 0
KCH1 172027Z 00008KT 18/04 A3005 RMK A01 T01790041  RH  040%=      5-min Rain = 0
KCH1 172028Z 01010KT 18/04 A3005 RMK A01 T01810043  RH  040%=      5-min Rain = 0
KCH1 172029Z 36011KT 18/04 A3005 RMK A01 T01820041  RH  039%=      5-min Rain = 0
KCH1 172030Z 00013G19KT 18/04 A3005 RMK A01 T01800039  RH  039%=      5-min Rain = 0
KCH1 172031Z 34014KT 18/04 A3005 RMK A01 T01770037  RH  039%=      5-min Rain = 0
KCH1 172032Z 35015KT 17/04 A3005 RMK A01 T01740037  RH  040%=      5-min Rain = 0
KCH1 172033Z 01010G15KT 18/04 A3005 RMK A01 T01750040  RH  041%=      5-min Rain = 0
KCH1 172034Z 35009KT 18/04 A3005 RMK A01 T01780042  RH  041%=      5-min Rain = 0
KCH1 172035Z 34012KT 18/04 A3005 RMK A01 T01800041  RH  040%=      5-min Rain = 0
KCH1 172036Z 35012KT 18/04 A3005 RMK A01 T01800040  RH  039%=      5-min Rain = 0
KCH1 172037Z 35010KT 18/04 A3005 RMK A01 T01790039  RH  039%=      5-min Rain = 0
KCH1 172038Z 01012KT 18/04 A3005 RMK A01 T01790040  RH  040%=      5-min Rain = 0
KCH1 172039Z 02011KT 18/04 A3005 RMK A01 T01800040  RH  039%=      5-min Rain = 0
KCH1 172040Z 01011KT 18/04 A3005 RMK A01 T01800038  RH  039%=      5-min Rain = 0
KCH1 172041Z 02014KT 18/04 A3005 RMK A01 T01790038  RH  039%=      5-min Rain = 0
KCH1 172042Z 01015KT 18/04 A3005 RMK A01 T01780037  RH  039%=      5-min Rain = 0
KCH1 172043Z 01009G14KT 18/04 A3005 RMK A01 T01760035  RH  039%=      5-min Rain = 0
KCH1 172044Z 35012KT 18/04 A3005 RMK A01 T01750037  RH  040%=      5-min Rain = 0
KCH1 172045Z 34016KT 18/04 A3005 RMK A01 T01750036  RH  039%=      5-min Rain = 0
KCH1 172046Z 00013KT 18/04 A3005 RMK A01 T01750035  RH  039%=      5-min Rain = 0
KCH1 172047Z 00012KT 18/04 A3005 RMK A01 T01750035  RH  039%=      5-min Rain = 0
KCH1 172048Z 01013G18KT 18/04 A3005 RMK A01 T01750035  RH  039%=      5-min Rain = 0
KCH1 172049Z 00013KT 17/04 A3005 RMK A01 T01740035  RH  040%=      5-min Rain = 0
KCH1 172050Z 01013KT 17/04 A3005 RMK A01 T01740036  RH  040%=      5-min Rain = 0
KCH1 172051Z 01011KT 17/04 A3005 RMK A01 T01740036  RH  040%=      5-min Rain = 0
KCH1 172052Z 01008KT 18/04 A3005 RMK A01 T01750038  RH  040%=      5-min Rain = 0
KCH1 172053Z 35008KT 18/04 A3005 RMK A01 T01760037  RH  040%=      5-min Rain = 0
KCH1 172054Z 00008KT 18/04 A3005 RMK A01 T01770037  RH  039%=      5-min Rain = 0
KCH1 172055Z 01006KT 18/04 A3005 RMK A01 T01760036  RH  039%=      5-min Rain = 0
KCH1 172056Z 03007KT 18/04 A3005 RMK A01 T01770038  RH  040%=      5-min Rain = 0
KCH1 172057Z 04007KT 18/04 A3005 RMK A01 T01790038  RH  039%=      5-min Rain = 0
KCH1 172058Z 03006G11KT 18/04 A3005 RMK A01 T01790039  RH  039%=      5-min Rain = 0
KCH1 172059Z 03010KT 18/04 A3005 RMK A01 T01790039  RH  039%=      5-min Rain = 0
KCH1 172100Z 01006KT 18/04 A3005 RMK A01 T01790038  RH  039%=      5-min Rain = 0
KCH1 172101Z 01012KT 18/04 A3005 RMK A01 T01790036  RH  039%=      5-min Rain = 0
KCH1 172102Z 01011KT 18/04 A3005 RMK A01 T01770035  RH  039%=      5-min Rain = 0
KCH1 172103Z 00011KT 18/03 A3005 RMK A01 T01750034  RH  039%=      5-min Rain = 0
KCH1 172104Z 01010KT 18/04 A3005 RMK A01 T01750036  RH  039%=      5-min Rain = 0
KCH1 172105Z 01011KT 18/04 A3005 RMK A01 T01750036  RH  039%=      5-min Rain = 0
KCH1 172106Z 02011KT 18/04 A3005 RMK A01 T01760035  RH  039%=      5-min Rain = 0
KCH1 172107Z 02012KT 18/04 A3005 RMK A01 T01760035  RH  039%=      5-min Rain = 0
KCH1 172108Z 02010KT 18/04 A3005 RMK A01 T01750035  RH  039%=      5-min Rain = 0
KCH1 172109Z 02008G13KT 18/04 A3005 RMK A01 T01750036  RH  040%=      5-min Rain = 0
KCH1 172110Z 01011G17KT 18/04 A3005 RMK A01 T01770036  RH  039%=      5-min Rain = 0
KCH1 172111Z 01010KT 18/04 A3005 RMK A01 T01760035  RH  039%=      5-min Rain = 0
KCH1 172112Z 01011KT 18/04 A3005 RMK A01 T01760035  RH  039%=      5-min Rain = 0
KCH1 172113Z 02010G15KT 18/04 A3005 RMK A01 T01760036  RH  039%=      5-min Rain = 0
KCH1 172114Z 03010KT 18/04 A3005 RMK A01 T01780036  RH  039%=      5-min Rain = 0
KCH1 172115Z 02008KT 18/04 A3005 RMK A01 T01770036  RH  039%=      5-min Rain = 0
KCH1 172116Z 03007KT 18/04 A3005 RMK A01 T01770037  RH  039%=      5-min Rain = 0
KCH1 172117Z 02008KT 18/04 A3005 RMK A01 T01780036  RH  039%=      5-min Rain = 0
KCH1 172118Z 01005KT 18/04 A3005 RMK A01 T01790037  RH  039%=      5-min Rain = 0
KCH1 172119Z 01011KT 18/04 A3005 RMK A01 T01810038  RH  039%=      5-min Rain = 0
KCH1 172120Z 01008KT 18/04 A3005 RMK A01 T01810036  RH  038%=      5-min Rain = 0
KCH1 172121Z 00007G12KT 18/04 A3005 RMK A01 T01810039  RH  039%=      5-min Rain = 0
KCH1 172122Z 00013KT 18/04 A3004 RMK A01 T01820037  RH  038%=      5-min Rain = 0
KCH1 172123Z 36013KT 18/04 A3004 RMK A01 T01800035  RH  038%=      5-min Rain = 0
KCH1 172124Z 01011KT 18/04 A3004 RMK A01 T01780035  RH  038%=      5-min Rain = 0
KCH1 172125Z 00008G13KT 18/04 A3004 RMK A01 T01780036  RH  039%=      5-min Rain = 0
KCH1 172126Z 35010G16KT 18/04 A3004 RMK A01 T01800035  RH  038%=      5-min Rain = 0
KCH1 172127Z 35011KT 18/03 A3004 RMK A01 T01780034  RH  038%=      5-min Rain = 0
KCH1 172128Z 01011KT 18/03 A3005 RMK A01 T01770034  RH  039%=      5-min Rain = 0
KCH1 172129Z 35011KT 18/03 A3005 RMK A01 T01760033  RH  039%=      5-min Rain = 0
KCH1 172130Z 01010KT 18/03 A3005 RMK A01 T01750033  RH  039%=      5-min Rain = 0
KCH1 172131Z 01009KT 17/03 A3005 RMK A01 T01740032  RH  039%=      5-min Rain = 0
KCH1 172132Z 35009KT 18/03 A3005 RMK A01 T01750032  RH  039%=      5-min Rain = 0
KCH1 172133Z 36006KT 18/03 A3005 RMK A01 T01760034  RH  039%=      5-min Rain = 0
KCH1 172134Z 01009G14KT 18/04 A3005 RMK A01 T01770035  RH  039%=      5-min Rain = 0
KCH1 172135Z 02010KT 18/03 A3005 RMK A01 T01770034  RH  038%=      5-min Rain = 0
KCH1 172136Z 03010G15KT 18/03 A3005 RMK A01 T01760034  RH  039%=      5-min Rain = 0
KCH1 172137Z 00011KT 18/03 A3005 RMK A01 T01750034  RH  039%=      5-min Rain = 0
KCH1 172138Z 01010KT 18/03 A3005 RMK A01 T01750034  RH  039%=      5-min Rain = 0
KCH1 172139Z 02010G15KT 18/03 A3005 RMK A01 T01750034  RH  039%=      5-min Rain = 0
KCH1 172140Z 02010G15KT 17/03 A3005 RMK A01 T01740033  RH  039%=      5-min Rain = 0
KCH1 172141Z 03009G14KT 17/03 A3005 RMK A01 T01730033  RH  039%=      5-min Rain = 0
KCH1 172142Z 02008G13KT 17/03 A3005 RMK A01 T01720032  RH  039%=      5-min Rain = 0
KCH1 172143Z 04008KT 17/03 A3005 RMK A01 T01710033  RH  040%=      5-min Rain = 0
KCH1 172144Z 03008KT 17/03 A3005 RMK A01 T01710034  RH  040%=      5-min Rain = 0
KCH1 172145Z 02008G13KT 17/03 A3005 RMK A01 T01710033  RH  040%=      5-min Rain = 0
KCH1 172146Z 01009G14KT 17/03 A3005 RMK A01 T01720033  RH  039%=      5-min Rain = 0
KCH1 172147Z 02009KT 17/03 A3005 RMK A01 T01730031  RH  039%=      5-min Rain = 0
KCH1 172148Z 02010KT 17/03 A3005 RMK A01 T01720031  RH  039%=      5-min Rain = 0
KCH1 172149Z 02006KT 17/03 A3005 RMK A01 T01720033  RH  039%=      5-min Rain = 0
KCH1 172150Z 03009KT 17/03 A3005 RMK A01 T01720033  RH  040%=      5-min Rain = 0
KCH1 172151Z 03011KT 17/03 A3005 RMK A01 T01720032  RH  039%=      5-min Rain = 0
KCH1 172152Z 01010KT 17/03 A3005 RMK A01 T01720032  RH  039%=      5-min Rain = 0
KCH1 172153Z 02007KT 17/03 A3005 RMK A01 T01720033  RH  039%=      5-min Rain = 0
KCH1 172154Z 01011KT 17/03 A3005 RMK A01 T01720032  RH  039%=      5-min Rain = 0
KCH1 172155Z 02011KT 17/03 A3005 RMK A01 T01730032  RH  039%=      5-min Rain = 0
KCH1 172156Z 01012KT 17/03 A3005 RMK A01 T01730031  RH  039%=      5-min Rain = 0
KCH1 172157Z 01009KT 17/03 A3005 RMK A01 T01730032  RH  039%=      5-min Rain = 0
KCH1 172158Z 03011KT 17/03 A3005 RMK A01 T01740032  RH  039%=      5-min Rain = 0
KCH1 172159Z 02010KT 18/03 A3005 RMK A01 T01750033  RH  039%=      5-min Rain = 0
KCH1 172200Z 02009KT 18/03 A3005 RMK A01 T01750033  RH  039%=      5-min Rain = 0
KCH1 172201Z 02009KT 18/03 A3005 RMK A01 T01750033  RH  039%=      5-min Rain = 0
KCH1 172202Z 01006KT 18/03 A3005 RMK A01 T01750033  RH  039%=      5-min Rain = 0
KCH1 172203Z 36008KT 18/03 A3005 RMK A01 T01750033  RH  039%=      5-min Rain = 0
KCH1 172204Z 35008KT 18/03 A3005 RMK A01 T01750033  RH  039%=      5-min Rain = 0
KCH1 172205Z 35009KT 17/03 A3005 RMK A01 T01730032  RH  039%=      5-min Rain = 0
KCH1 172206Z 34008KT 17/03 A3005 RMK A01 T01730033  RH  039%=      5-min Rain = 0
KCH1 172207Z 02006KT 17/04 A3005 RMK A01 T01730035  RH  040%=      5-min Rain = 0
KCH1 172208Z 05010KT 18/04 A3005 RMK A01 T01750035  RH  039%=      5-min Rain = 0
KCH1 172209Z 04009KT 18/03 A3005 RMK A01 T01750033  RH  039%=      5-min Rain = 0
KCH1 172210Z 04008KT 18/03 A3005 RMK A01 T01750034  RH  039%=      5-min Rain = 0
KCH1 172211Z 04007KT 18/03 A3004 RMK A01 T01750034  RH  039%=      5-min Rain = 0
KCH1 172212Z 04010KT 18/04 A3004 RMK A01 T01760035  RH  039%=      5-min Rain = 0
KCH1 172213Z 03009KT 18/03 A3004 RMK A01 T01770034  RH  039%=      5-min Rain = 0
KCH1 172214Z 03009KT 18/03 A3004 RMK A01 T01770033  RH  038%=      5-min Rain = 0
KCH1 172215Z 02010KT 18/03 A3004 RMK A01 T01770034  RH  039%=      5-min Rain = 0
KCH1 172216Z 02005KT 18/03 A3004 RMK A01 T01770034  RH  038%=      5-min Rain = 0
KCH1 172217Z 03007G12KT 18/03 A3004 RMK A01 T01770034  RH  038%=      5-min Rain = 0
KCH1 172218Z 02009G14KT 18/03 A3004 RMK A01 T01780034  RH  038%=      5-min Rain = 0
KCH1 172219Z 01009G15KT 18/03 A3004 RMK A01 T01780034  RH  038%=      5-min Rain = 0
KCH1 172220Z 01011KT 18/03 A3004 RMK A01 T01780034  RH  038%=      5-min Rain = 0
KCH1 172221Z 01009KT 18/03 A3004 RMK A01 T01760033  RH  038%=      5-min Rain = 0
KCH1 172222Z 01011KT 18/03 A3004 RMK A01 T01760033  RH  039%=      5-min Rain = 0
KCH1 172223Z 02010KT 18/03 A3004 RMK A01 T01750033  RH  039%=      5-min Rain = 0
KCH1 172224Z 02010KT 17/03 A3004 RMK A01 T01740033  RH  039%=      5-min Rain = 0
KCH1 172225Z 01011KT 17/03 A3004 RMK A01 T01740032  RH  039%=      5-min Rain = 0
KCH1 172226Z 01010KT 17/03 A3004 RMK A01 T01730032  RH  039%=      5-min Rain = 0
KCH1 172227Z 01007KT 17/03 A3005 RMK A01 T01740033  RH  039%=      5-min Rain = 0
KCH1 172228Z 02011KT 17/03 A3005 RMK A01 T01730033  RH  039%=      5-min Rain = 0
KCH1 172229Z 02008KT 17/03 A3005 RMK A01 T01740034  RH  039%=      5-min Rain = 0
KCH1 172230Z 02010KT 17/03 A3005 RMK A01 T01730033  RH  039%=      5-min Rain = 0
KCH1 172231Z 01011KT 17/03 A3005 RMK A01 T01730033  RH  039%=      5-min Rain = 0
KCH1 172232Z 03010KT 17/03 A3005 RMK A01 T01730033  RH  039%=      5-min Rain = 0
KCH1 172233Z 03009KT 17/03 A3005 RMK A01 T01730033  RH  039%=      5-min Rain = 0
KCH1 172234Z 02008G13KT 17/03 A3005 RMK A01 T01730034  RH  040%=      5-min Rain = 0
KCH1 172235Z 02009KT 17/03 A3005 RMK A01 T01720034  RH  040%=      5-min Rain = 0
KCH1 172236Z 03008G13KT 17/03 A3005 RMK A01 T01720034  RH  040%=      5-min Rain = 0
KCH1 172237Z 03009KT 17/03 A3005 RMK A01 T01700034  RH  040%=      5-min Rain = 0
KCH1 172238Z 04008KT 17/03 A3005 RMK A01 T01690034  RH  040%=      5-min Rain = 0
KCH1 172239Z 02009KT 17/04 A3005 RMK A01 T01690035  RH  041%=      5-min Rain = 0
KCH1 172240Z 01007KT 17/03 A3006 RMK A01 T01690034  RH  040%=      5-min Rain = 0
KCH1 172241Z 01007KT 17/03 A3006 RMK A01 T01690034  RH  040%=      5-min Rain = 0
KCH1 172242Z 36009KT 17/03 A3005 RMK A01 T01690034  RH  040%=      5-min Rain = 0
KCH1 172243Z 01007KT 17/03 A3005 RMK A01 T01700034  RH  040%=      5-min Rain = 0
KCH1 172244Z 02007KT 17/04 A3005 RMK A01 T01690036  RH  041%=      5-min Rain = 0
KCH1 172245Z 04007KT 17/04 A3005 RMK A01 T01690035  RH  041%=      5-min Rain = 0
KCH1 172246Z 03007KT 17/04 A3006 RMK A01 T01690035  RH  041%=      5-min Rain = 0
KCH1 172247Z 04008KT 17/04 A3006 RMK A01 T01680035  RH  041%=      5-min Rain = 0
KCH1 172248Z 03006KT 17/04 A3006 RMK A01 T01670035  RH  041%=      5-min Rain = 0
KCH1 172249Z 01005KT 17/04 A3006 RMK A01 T01670035  RH  041%=      5-min Rain = 0
KCH1 172250Z 01007KT 17/04 A3006 RMK A01 T01660035  RH  042%=      5-min Rain = 0
KCH1 172251Z 00006KT 17/04 A3006 RMK A01 T01650035  RH  042%=      5-min Rain = 0
KCH1 172252Z 02006KT 17/04 A3006 RMK A01 T01650035  RH  042%=      5-min Rain = 0
KCH1 172253Z 03007KT 16/04 A3006 RMK A01 T01640035  RH  042%=      5-min Rain = 0
KCH1 172254Z 03007G12KT 16/03 A3006 RMK A01 T01630034  RH  042%=      5-min Rain = 0
KCH1 172255Z 01012KT 16/03 A3006 RMK A01 T01630034  RH  042%=      5-min Rain = 0
KCH1 172256Z 02011KT 16/03 A3006 RMK A01 T01630033  RH  042%=      5-min Rain = 0
KCH1 172257Z 01011KT 16/03 A3006 RMK A01 T01630033  RH  042%=      5-min Rain = 0
KCH1 172258Z 02008KT 16/03 A3006 RMK A01 T01630033  RH  042%=      5-min Rain = 0
KCH1 172259Z 02005KT 16/03 A3006 RMK A01 T01630034  RH  042%=      5-min Rain = 0
KCH1 172300Z 02007KT 16/03 A3006 RMK A01 T01630034  RH  042%=      5-min Rain = 0
KCH1 172301Z 01005KT 16/03 A3006 RMK A01 T01630034  RH  042%=      5-min Rain = 0
KCH1 172302Z 03006KT 16/03 A3006 RMK A01 T01620034  RH  042%=      5-min Rain = 0
KCH1 172303Z 02004KT 16/03 A3006 RMK A01 T01620034  RH  042%=      5-min Rain = 0
KCH1 172304Z 02005KT 16/04 A3006 RMK A01 T01620035  RH  043%=      5-min Rain = 0
KCH1 172305Z 02005KT 16/03 A3006 RMK A01 T01610034  RH  043%=      5-min Rain = 0
KCH1 172306Z 02007KT 16/03 A3006 RMK A01 T01610034  RH  043%=      5-min Rain = 0
KCH1 172307Z 01007KT 16/03 A3006 RMK A01 T01610033  RH  042%=      5-min Rain = 0
KCH1 172308Z 02004KT 16/03 A3006 RMK A01 T01610034  RH  043%=      5-min Rain = 0
KCH1 172309Z 02007KT 16/03 A3006 RMK A01 T01610034  RH  043%=      5-min Rain = 0
KCH1 172310Z 03007KT 16/03 A3006 RMK A01 T01610034  RH  043%=      5-min Rain = 0
KCH1 172311Z 03008KT 16/03 A3006 RMK A01 T01610034  RH  043%=      5-min Rain = 0
KCH1 172312Z 03008KT 16/03 A3006 RMK A01 T01610034  RH  043%=      5-min Rain = 0
KCH1 172313Z 03006KT 16/03 A3006 RMK A01 T01610034  RH  043%=      5-min Rain = 0
KCH1 172314Z 03007KT 16/04 A3006 RMK A01 T01610035  RH  043%=      5-min Rain = 0
KCH1 172315Z 03007KT 16/03 A3006 RMK A01 T01600034  RH  043%=      5-min Rain = 0
KCH1 172316Z 02007KT 16/03 A3006 RMK A01 T01600034  RH  043%=      5-min Rain = 0
KCH1 172317Z 02005KT 16/03 A3006 RMK A01 T01600034  RH  043%=      5-min Rain = 0
KCH1 172318Z 03006KT 16/03 A3006 RMK A01 T01600034  RH  043%=      5-min Rain = 0
KCH1 172319Z 03004KT 16/03 A3006 RMK A01 T01600034  RH  043%=      5-min Rain = 0
KCH1 172320Z 03003KT 16/04 A3006 RMK A01 T01590035  RH  043%=      5-min Rain = 0
KCH1 172321Z 04003KT 16/03 A3006 RMK A01 T01580034  RH  044%=      5-min Rain = 0
KCH1 172322Z 03003KT 16/04 A3006 RMK A01 T01580035  RH  044%=      5-min Rain = 0
KCH1 172323Z 03003KT 16/04 A3006 RMK A01 T01570035  RH  044%=      5-min Rain = 0
KCH1 172324Z 03004KT 16/04 A3006 RMK A01 T01570035  RH  044%=      5-min Rain = 0
KCH1 172325Z 04004KT 16/04 A3006 RMK A01 T01560035  RH  044%=      5-min Rain = 0
KCH1 172326Z 04004KT 16/04 A3006 RMK A01 T01550035  RH  045%=      5-min Rain = 0
KCH1 172327Z 04004KT 15/04 A3006 RMK A01 T01540035  RH  045%=      5-min Rain = 0
KCH1 172328Z 04005KT 15/04 A3006 RMK A01 T01530035  RH  045%=      5-min Rain = 0
KCH1 172329Z 04004KT 15/04 A3006 RMK A01 T01520035  RH  045%=      5-min Rain = 0
KCH1 172330Z 04004KT 15/04 A3006 RMK A01 T01520035  RH  045%=      5-min Rain = 0
KCH1 172331Z 04003KT 15/03 A3006 RMK A01 T01510034  RH  046%=      5-min Rain = 0
KCH1 172332Z 04003KT 15/04 A3006 RMK A01 T01500035  RH  046%=      5-min Rain = 0
KCH1 172333Z 04003KT 15/04 A3007 RMK A01 T01500035  RH  046%=      5-min Rain = 0
KCH1 172334Z 03003KT 15/03 A3007 RMK A01 T01490034  RH  046%=      5-min Rain = 0
KCH1 172335Z 02002KT 15/03 A3007 RMK A01 T01490034  RH  046%=      5-min Rain = 0
KCH1 172336Z 03003KT 15/03 A3007 RMK A01 T01490034  RH  046%=      5-min Rain = 0
KCH1 172337Z 02003KT 15/04 A3007 RMK A01 T01490035  RH  046%=      5-min Rain = 0
KCH1 172338Z 02003KT 15/04 A3007 RMK A01 T01490035  RH  046%=      5-min Rain = 0
KCH1 172339Z 02003KT 15/04 A3007 RMK A01 T01480035  RH  047%=      5-min Rain = 0
KCH1 172340Z 02004KT 15/04 A3007 RMK A01 T01470035  RH  047%=      5-min Rain = 0
KCH1 172341Z 03003KT 15/04 A3007 RMK A01 T01470035  RH  047%=      5-min Rain = 0
KCH1 172342Z 03003KT 15/04 A3007 RMK A01 T01470035  RH  047%=      5-min Rain = 0
KCH1 172343Z 03004KT 15/04 A3007 RMK A01 T01460036  RH  047%=      5-min Rain = 0
KCH1 172344Z 03003KT 14/04 A3007 RMK A01 T01440035  RH  048%=      5-min Rain = 0
KCH1 172345Z 03003KT 14/04 A3007 RMK A01 T01440036  RH  048%=      5-min Rain = 0
KCH1 172346Z 03003KT 14/04 A3007 RMK A01 T01430035  RH  048%=      5-min Rain = 0
KCH1 172347Z 03003KT 14/04 A3007 RMK A01 T01420035  RH  049%=      5-min Rain = 0
KCH1 172348Z 03004KT 14/04 A3007 RMK A01 T01410035  RH  049%=      5-min Rain = 0
KCH1 172349Z 03003KT 14/04 A3007 RMK A01 T01410035  RH  049%=      5-min Rain = 0
KCH1 172350Z 03003KT 14/04 A3007 RMK A01 T01400035  RH  049%=      5-min Rain = 0
KCH1 172351Z 03003KT 14/04 A3007 RMK A01 T01390035  RH  049%=      5-min Rain = 0
KCH1 172352Z 03004KT 14/04 A3007 RMK A01 T01390035  RH  050%=      5-min Rain = 0
KCH1 172353Z 02003KT 14/04 A3007 RMK A01 T01380035  RH  050%=      5-min Rain = 0
KCH1 172354Z 03004KT 14/04 A3007 RMK A01 T01380036  RH  050%=      5-min Rain = 0
KCH1 172355Z 03003KT 14/04 A3007 RMK A01 T01370035  RH  050%=      5-min Rain = 0
KCH1 172356Z 03004KT 14/04 A3007 RMK A01 T01370035  RH  050%=      5-min Rain = 0
KCH1 172357Z 03004KT 14/04 A3007 RMK A01 T01360035  RH  050%=      5-min Rain = 0
KCH1 172358Z 03004KT 14/04 A3007 RMK A01 T01360035  RH  050%=      5-min Rain = 0
KCH1 172359Z 03003KT 14/04 A3007 RMK A01 T01350035  RH  051%=      5-min Rain = 0
KCH1 180000Z 03003KT 14/04 A3007 RMK A01 T01350035  RH  051%=      5-min Rain = 0
KCH1 180001Z 03003KT 13/04 A3007 RMK A01 T01340035  RH  051%=      5-min Rain = 0
KCH1 180002Z 03003KT 13/04 A3007 RMK A01 T01340035  RH  051%=      5-min Rain = 0
KCH1 180003Z 04003KT 13/04 A3007 RMK A01 T01340035  RH  051%=      5-min Rain = 0
KCH1 180004Z 04003KT 13/04 A3008 RMK A01 T01340035  RH  051%=      5-min Rain = 0
KCH1 180005Z 03003KT 13/04 A3008 RMK A01 T01340035  RH  051%=      5-min Rain = 0
KCH1 180006Z 03003KT 13/04 A3008 RMK A01 T01330035  RH  051%=      5-min Rain = 0
KCH1 180007Z 04003KT 13/04 A3008 RMK A01 T01330035  RH  051%=      5-min Rain = 0
KCH1 180008Z 04003KT 13/04 A3008 RMK A01 T01320035  RH  052%=      5-min Rain = 0
KCH1 180009Z 03003KT 13/04 A3008 RMK A01 T01320035  RH  052%=      5-min Rain = 0
KCH1 180010Z 03002KT 13/04 A3008 RMK A01 T01320035  RH  052%=      5-min Rain = 0
KCH1 180011Z 03003KT 13/04 A3008 RMK A01 T01320035  RH  052%=      5-min Rain = 0
KCH1 180012Z 03003KT 13/04 A3008 RMK A01 T01320035  RH  052%=      5-min Rain = 0
KCH1 180013Z 04003KT 13/04 A3008 RMK A01 T01320035  RH  052%=      5-min Rain = 0
KCH1 180014Z 04003KT 13/04 A3008 RMK A01 T01320035  RH  052%=      5-min Rain = 0
KCH1 180015Z 03002KT 13/04 A3008 RMK A01 T01330035  RH  052%=      5-min Rain = 0
KCH1 180016Z 02002KT 13/04 A3008 RMK A01 T01330035  RH  052%=      5-min Rain = 0
KCH1 180017Z 02002KT 13/04 A3008 RMK A01 T01330035  RH  052%=      5-min Rain = 0
KCH1 180018Z 04001KT 13/04 A3008 RMK A01 T01330035  RH  052%=      5-min Rain = 0
KCH1 180019Z 05001KT 13/04 A3008 RMK A01 T01320035  RH  052%=      5-min Rain = 0
KCH1 180020Z 07001KT 13/04 A3008 RMK A01 T01320035  RH  052%=      5-min Rain = 0
KCH1 180021Z 06000KT 13/04 A3008 RMK A01 T01320035  RH  052%=      5-min Rain = 0
KCH1 180022Z 01000KT 13/04 A3008 RMK A01 T01320035  RH  052%=      5-min Rain = 0
KCH1 180023Z 07001KT 13/03 A3008 RMK A01 T01310034  RH  052%=      5-min Rain = 0
KCH1 180024Z 03001KT 13/04 A3009 RMK A01 T01310035  RH  052%=      5-min Rain = 0
KCH1 180025Z 06000KT 13/04 A3009 RMK A01 T01310035  RH  052%=      5-min Rain = 0
KCH1 180026Z 05001KT 13/04 A3009 RMK A01 T01310035  RH  052%=      5-min Rain = 0
KCH1 180027Z 06001KT 13/04 A3008 RMK A01 T01300035  RH  052%=      5-min Rain = 0
KCH1 180028Z 06001KT 13/04 A3008 RMK A01 T01310035  RH  052%=      5-min Rain = 0
KCH1 180029Z 05001KT 13/04 A3008 RMK A01 T01310035  RH  052%=      5-min Rain = 0
KCH1 180030Z 08001KT 13/03 A3008 RMK A01 T01290034  RH  053%=      5-min Rain = 0
KCH1 180031Z 06001KT 13/03 A3008 RMK A01 T01260034  RH  053%=      5-min Rain = 0
KCH1 180032Z 04002KT 13/03 A3008 RMK A01 T01250034  RH  054%=      5-min Rain = 0
KCH1 180033Z 05001KT 12/03 A3008 RMK A01 T01230033  RH  054%=      5-min Rain = 0
KCH1 180034Z 04001KT 12/03 A3009 RMK A01 T01210034  RH  055%=      5-min Rain = 0
KCH1 180035Z 03001KT 12/03 A3009 RMK A01 T01190034  RH  056%=      5-min Rain = 0
KCH1 180036Z 05001KT 12/03 A3009 RMK A01 T01180034  RH  056%=      5-min Rain = 0
KCH1 180037Z 05001KT 12/03 A3008 RMK A01 T01180034  RH  057%=      5-min Rain = 0
KCH1 180038Z 04001KT 12/03 A3008 RMK A01 T01180034  RH  057%=      5-min Rain = 0
KCH1 180039Z 05001KT 12/04 A3008 RMK A01 T01200035  RH  056%=      5-min Rain = 0
KCH1 180040Z 05001KT 12/04 A3008 RMK A01 T01200035  RH  056%=      5-min Rain = 0
KCH1 180041Z 04002KT 12/03 A3008 RMK A01 T01190034  RH  056%=      5-min Rain = 0
KCH1 180042Z 05001KT 12/03 A3008 RMK A01 T01150034  RH  057%=      5-min Rain = 0
KCH1 180043Z 05001KT 11/03 A3008 RMK A01 T01130033  RH  058%=      5-min Rain = 0
KCH1 180044Z 06001KT 11/03 A3008 RMK A01 T01120034  RH  059%=      5-min Rain = 0
KCH1 180045Z 06001KT 11/03 A3008 RMK A01 T01110033  RH  059%=      5-min Rain = 0
KCH1 180046Z 06001KT 11/03 A3008 RMK A01 T01090033  RH  059%=      5-min Rain = 0
KCH1 180047Z 06001KT 11/03 A3008 RMK A01 T01100034  RH  060%=      5-min Rain = 0
KCH1 180048Z 06001KT 11/04 A3009 RMK A01 T01110035  RH  059%=      5-min Rain = 0
KCH1 180049Z 06001KT 11/04 A3009 RMK A01 T01120035  RH  059%=      5-min Rain = 0
KCH1 180050Z 06001KT 11/04 A3009 RMK A01 T01140035  RH  058%=      5-min Rain = 0
KCH1 180051Z 05001KT 12/04 A3009 RMK A01 T01150035  RH  058%=      5-min Rain = 0
KCH1 180052Z 05001KT 11/03 A3009 RMK A01 T01140034  RH  058%=      5-min Rain = 0
KCH1 180053Z 05002KT 11/03 A3009 RMK A01 T01120034  RH  059%=      5-min Rain = 0
KCH1 180054Z 05002KT 11/03 A3009 RMK A01 T01120034  RH  059%=      5-min Rain = 0
KCH1 180055Z 05002KT 11/03 A3009 RMK A01 T01120034  RH  059%=      5-min Rain = 0
KCH1 180056Z 05002KT 11/03 A3009 RMK A01 T01110034  RH  059%=      5-min Rain = 0
KCH1 180057Z 04002KT 11/03 A3009 RMK A01 T01100033  RH  059%=      5-min Rain = 0
KCH1 180058Z 04002KT 11/03 A3009 RMK A01 T01070032  RH  060%=      5-min Rain = 0
KCH1 180059Z 04002KT 10/03 A3009 RMK A01 T01040032  RH  061%=      5-min Rain = 0
KCH1 180100Z 04003KT 10/03 A3009 RMK A01 T01010031  RH  062%=      5-min Rain = 0
KCH1 180101Z 04003KT 10/03 A3009 RMK A01 T00980031  RH  063%=      5-min Rain = 0
KCH1 180102Z 04003KT 10/03 A3009 RMK A01 T00960031  RH  064%=      5-min Rain = 0
KCH1 180103Z 04003KT 10/03 A3009 RMK A01 T00950032  RH  065%=      5-min Rain = 0
KCH1 180104Z 04003KT 10/03 A3009 RMK A01 T00950032  RH  065%=      5-min Rain = 0
KCH1 180105Z 04002KT 09/03 A3009 RMK A01 T00930031  RH  065%=      5-min Rain = 0
KCH1 180106Z 04002KT 09/03 A3009 RMK A01 T00920032  RH  066%=      5-min Rain = 0
KCH1 180107Z 04002KT 09/03 A3009 RMK A01 T00920033  RH  066%=      5-min Rain = 0
KCH1 180108Z 04002KT 09/03 A3009 RMK A01 T00940034  RH  066%=      5-min Rain = 0
KCH1 180109Z 04002KT 10/03 A3009 RMK A01 T00960034  RH  065%=      5-min Rain = 0
KCH1 180110Z 03002KT 10/04 A3009 RMK A01 T00990035  RH  065%=      5-min Rain = 0
KCH1 180111Z 03001KT 10/04 A3009 RMK A01 T01000035  RH  064%=      5-min Rain = 0
KCH1 180112Z 03001KT 10/04 A3009 RMK A01 T01010035  RH  063%=      5-min Rain = 0
KCH1 180113Z 03001KT 10/04 A3009 RMK A01 T01020035  RH  063%=      5-min Rain = 0
KCH1 180114Z 03001KT 10/04 A3009 RMK A01 T01030035  RH  062%=      5-min Rain = 0
KCH1 180115Z 02001KT 10/03 A3009 RMK A01 T01030034  RH  062%=      5-min Rain = 0
KCH1 180116Z 02001KT 10/03 A3009 RMK A01 T01010033  RH  062%=      5-min Rain = 0
KCH1 180117Z 02001KT 10/03 A3009 RMK A01 T00990033  RH  063%=      5-min Rain = 0
KCH1 180118Z 02001KT 10/03 A3009 RMK A01 T00980033  RH  064%=      5-min Rain = 0
KCH1 180119Z 03001KT 10/03 A3009 RMK A01 T00990034  RH  064%=      5-min Rain = 0
KCH1 180120Z 02001KT 10/03 A301 RMK A01 T01000034  RH  064%=      5-min Rain = 0
KCH1 180121Z 01001KT 10/03 A301 RMK A01 T01000034  RH  063%=      5-min Rain = 0
KCH1 180122Z 35001KT 10/03 A301 RMK A01 T01010034  RH  063%=      5-min Rain = 0
KCH1 180123Z 34001KT 10/03 A301 RMK A01 T01000034  RH  064%=      5-min Rain = 0
KCH1 180124Z 34001KT 10/03 A301 RMK A01 T00990034  RH  064%=      5-min Rain = 0
KCH1 180125Z 34002KT 10/04 A301 RMK A01 T00990036  RH  065%=      5-min Rain = 0
KCH1 180126Z 35002KT 10/04 A301 RMK A01 T00990036  RH  065%=      5-min Rain = 0
KCH1 180127Z 35002KT 10/04 A301 RMK A01 T00980035  RH  065%=      5-min Rain = 0
KCH1 180128Z 35002KT 10/04 A301 RMK A01 T00960035  RH  066%=      5-min Rain = 0
KCH1 180129Z 35003KT 10/04 A301 RMK A01 T00950035  RH  066%=      5-min Rain = 0
KCH1 180130Z 34003KT 10/04 A301 RMK A01 T00950035  RH  066%=      5-min Rain = 0
KCH1 180131Z 34003KT 09/04 A301 RMK A01 T00940036  RH  067%=      5-min Rain = 0
KCH1 180132Z 35002KT 09/04 A301 RMK A01 T00940036  RH  067%=      5-min Rain = 0
KCH1 180133Z 34002KT 09/04 A301 RMK A01 T00930036  RH  068%=      5-min Rain = 0
KCH1 180134Z 34002KT 09/04 A301 RMK A01 T00930039  RH  069%=      5-min Rain = 0
KCH1 180135Z 34002KT 09/04 A301 RMK A01 T00930039  RH  069%=      5-min Rain = 0
KCH1 180136Z 34002KT 09/04 A301 RMK A01 T00930038  RH  069%=      5-min Rain = 0
KCH1 180137Z 33002KT 09/04 A301 RMK A01 T00930039  RH  069%=      5-min Rain = 0
KCH1 180138Z 31001KT 09/04 A301 RMK A01 T00930041  RH  070%=      5-min Rain = 0
KCH1 180139Z 30001KT 09/04 A3009 RMK A01 T00930042  RH  070%=      5-min Rain = 0
KCH1 180140Z 31002KT 09/05 A3009 RMK A01 T00930045  RH  072%=      5-min Rain = 0
KCH1 180141Z 33002KT 09/05 A3009 RMK A01 T00940046  RH  072%=      5-min Rain = 0
KCH1 180142Z 32002KT 10/05 A3009 RMK A01 T00950046  RH  072%=      5-min Rain = 0
KCH1 180143Z 32002KT 10/05 A3009 RMK A01 T00950047  RH  072%=      5-min Rain = 0
KCH1 180144Z 33002KT 10/05 A3009 RMK A01 T00950047  RH  072%=      5-min Rain = 0
KCH1 180145Z 32002KT 10/05 A3009 RMK A01 T00950047  RH  072%=      5-min Rain = 0
KCH1 180146Z 31002KT 09/05 A3009 RMK A01 T00930045  RH  072%=      5-min Rain = 0
KCH1 180147Z 31002KT 09/05 A301 RMK A01 T00930047  RH  073%=      5-min Rain = 0
KCH1 180148Z 30002KT 09/05 A301 RMK A01 T00920050  RH  075%=      5-min Rain = 0
KCH1 180149Z 30003KT 09/05 A301 RMK A01 T00920053  RH  077%=      5-min Rain = 0
KCH1 180150Z 29003KT 09/05 A301 RMK A01 T00930053  RH  076%=      5-min Rain = 0
KCH1 180151Z 30004KT 09/05 A301 RMK A01 T00920053  RH  077%=      5-min Rain = 0
KCH1 180152Z 31004KT 09/06 A301 RMK A01 T00910055  RH  078%=      5-min Rain = 0
KCH1 180153Z 31004KT 09/05 A301 RMK A01 T00900054  RH  078%=      5-min Rain = 0
KCH1 180154Z 31005KT 09/05 A301 RMK A01 T00890053  RH  078%=      5-min Rain = 0
KCH1 180155Z 31005KT 09/05 A301 RMK A01 T00880053  RH  079%=      5-min Rain = 0
KCH1 180156Z 31004KT 09/05 A301 RMK A01 T00880053  RH  079%=      5-min Rain = 0
KCH1 180157Z 32004KT 09/05 A301 RMK A01 T00880053  RH  078%=      5-min Rain = 0
KCH1 180158Z 31003KT 09/05 A301 RMK A01 T00880052  RH  078%=      5-min Rain = 0
KCH1 180159Z 31003KT 09/05 A301 RMK A01 T00870051  RH  078%=      5-min Rain = 0
KCH1 180200Z 30003KT 09/05 A301 RMK A01 T00870051  RH  078%=      5-min Rain = 0
KCH1 180201Z 30003KT 09/05 A301 RMK A01 T00870051  RH  078%=      5-min Rain = 0
KCH1 180202Z 30003KT 09/05 A301 RMK A01 T00870051  RH  078%=      5-min Rain = 0
KCH1 180203Z 29004KT 09/05 A301 RMK A01 T00860050  RH  078%=      5-min Rain = 0
KCH1 180204Z 29004KT 09/05 A301 RMK A01 T00860051  RH  078%=      5-min Rain = 0
KCH1 180205Z 28004KT 09/05 A301 RMK A01 T00860051  RH  078%=      5-min Rain = 0
KCH1 180206Z 27004KT 09/05 A301 RMK A01 T00860051  RH  078%=      5-min Rain = 0
KCH1 180207Z 26005KT 09/05 A301 RMK A01 T00860050  RH  078%=      5-min Rain = 0
KCH1 180208Z 26005KT 09/05 A301 RMK A01 T00850049  RH  078%=      5-min Rain = 0
KCH1 180209Z 26005KT 08/05 A3011 RMK A01 T00830048  RH  078%=      5-min Rain = 0
KCH1 180210Z 26005KT 08/05 A3011 RMK A01 T00810046  RH  079%=      5-min Rain = 0
KCH1 180211Z 27006KT 08/05 A3011 RMK A01 T00800045  RH  079%=      5-min Rain = 0
KCH1 180212Z 28006KT 08/05 A3011 RMK A01 T00790045  RH  079%=      5-min Rain = 0
KCH1 180213Z 27006KT 08/04 A3011 RMK A01 T00780044  RH  079%=      5-min Rain = 0
KCH1 180214Z 28006KT 08/04 A3011 RMK A01 T00780044  RH  079%=      5-min Rain = 0
KCH1 180215Z 28006KT 08/04 A3011 RMK A01 T00790044  RH  079%=      5-min Rain = 0
KCH1 180216Z 28006KT 08/05 A3011 RMK A01 T00800045  RH  079%=      5-min Rain = 0
KCH1 180217Z 29006KT 08/05 A3011 RMK A01 T00800045  RH  078%=      5-min Rain = 0
KCH1 180218Z 29006KT 08/05 A3011 RMK A01 T00800045  RH  078%=      5-min Rain = 0
KCH1 180219Z 29006KT 08/05 A3011 RMK A01 T00800045  RH  079%=      5-min Rain = 0
KCH1 180220Z 29006KT 08/05 A3011 RMK A01 T00800045  RH  079%=      5-min Rain = 0
KCH1 180221Z 30006KT 08/05 A3011 RMK A01 T00800046  RH  079%=      5-min Rain = 0
KCH1 180222Z 30006KT 08/05 A3011 RMK A01 T00790046  RH  079%=      5-min Rain = 0
KCH1 180223Z 30006KT 08/05 A3011 RMK A01 T00790045  RH  079%=      5-min Rain = 0
KCH1 180224Z 30006KT 08/05 A3011 RMK A01 T00790045  RH  079%=      5-min Rain = 0
KCH1 180225Z 30006KT 08/05 A3011 RMK A01 T00790045  RH  079%=      5-min Rain = 0
KCH1 180226Z 30006KT 08/05 A3011 RMK A01 T00790045  RH  079%=      5-min Rain = 0
KCH1 180227Z 30006KT 08/05 A3011 RMK A01 T00790045  RH  079%=      5-min Rain = 0
KCH1 180228Z 29006KT 08/05 A3011 RMK A01 T00790045  RH  079%=      5-min Rain = 0
KCH1 180229Z 29006KT 08/05 A3011 RMK A01 T00790045  RH  079%=      5-min Rain = 0
KCH1 180230Z 29005KT 08/05 A3011 RMK A01 T00790045  RH  079%=      5-min Rain = 0
KCH1 180231Z 29005KT 08/05 A3011 RMK A01 T00790045  RH  079%=      5-min Rain = 0
KCH1 180232Z 28005KT 08/05 A3011 RMK A01 T00780045  RH  080%=      5-min Rain = 0
KCH1 180233Z 28005KT 08/05 A3011 RMK A01 T00780045  RH  080%=      5-min Rain = 0
KCH1 180234Z 28005KT 08/05 A3011 RMK A01 T00780046  RH  080%=      5-min Rain = 0
KCH1 180235Z 28005KT 08/05 A3011 RMK A01 T00780045  RH  080%=      5-min Rain = 0
KCH1 180236Z 28005KT 08/05 A3012 RMK A01 T00780045  RH  079%=      5-min Rain = 0
KCH1 180237Z 28005KT 08/04 A3012 RMK A01 T00790044  RH  079%=      5-min Rain = 0
KCH1 180238Z 29006KT 08/04 A3012 RMK A01 T00790044  RH  079%=      5-min Rain = 0
KCH1 180239Z 29006KT 08/04 A3012 RMK A01 T00790044  RH  078%=      5-min Rain = 0
KCH1 180240Z 29006KT 08/04 A3012 RMK A01 T00790043  RH  078%=      5-min Rain = 0
KCH1 180241Z 29006KT 08/04 A3012 RMK A01 T00790043  RH  078%=      5-min Rain = 0
KCH1 180242Z 29006KT 08/04 A3012 RMK A01 T00790043  RH  078%=      5-min Rain = 0
KCH1 180243Z 29006KT 08/04 A3012 RMK A01 T00780043  RH  078%=      5-min Rain = 0
KCH1 180244Z 29006KT 08/04 A3012 RMK A01 T00780043  RH  078%=      5-min Rain = 0
KCH1 180245Z 30006KT 08/04 A3012 RMK A01 T00780043  RH  078%=      5-min Rain = 0
KCH1 180246Z 30006KT 08/04 A3012 RMK A01 T00780043  RH  078%=      5-min Rain = 0
KCH1 180247Z 30006KT 08/04 A3011 RMK A01 T00780042  RH  078%=      5-min Rain = 0
KCH1 180248Z 31006KT 08/04 A3011 RMK A01 T00780042  RH  078%=      5-min Rain = 0
KCH1 180249Z 31006KT 08/04 A3011 RMK A01 T00790044  RH  078%=      5-min Rain = 0
KCH1 180250Z 31005KT 08/04 A3012 RMK A01 T00800044  RH  078%=      5-min Rain = 0
KCH1 180251Z 31005KT 08/04 A3012 RMK A01 T00810044  RH  078%=      5-min Rain = 0
KCH1 180252Z 30007KT 08/04 A3012 RMK A01 T00810043  RH  077%=      5-min Rain = 0
KCH1 180253Z 30006KT 08/04 A3012 RMK A01 T00810043  RH  077%=      5-min Rain = 0
KCH1 180254Z 30006KT 08/04 A3012 RMK A01 T00810043  RH  077%=      5-min Rain = 0
KCH1 180255Z 30006KT 08/04 A3012 RMK A01 T00800042  RH  077%=      5-min Rain = 0
KCH1 180256Z 30006KT 08/04 A3012 RMK A01 T00790043  RH  078%=      5-min Rain = 0
KCH1 180257Z 30006KT 08/04 A3012 RMK A01 T00780042  RH  078%=      5-min Rain = 0
KCH1 180258Z 30006KT 08/04 A3012 RMK A01 T00770042  RH  079%=      5-min Rain = 0
KCH1 180259Z 30006KT 08/04 A3012 RMK A01 T00770043  RH  079%=      5-min Rain = 0
KCH1 180300Z 30006KT 08/04 A3012 RMK A01 T00770043  RH  079%=      5-min Rain = 0
KCH1 180301Z 31005KT 08/04 A3011 RMK A01 T00760042  RH  079%=      5-min Rain = 0
KCH1 180302Z 31005KT 08/04 A3011 RMK A01 T00760043  RH  079%=      5-min Rain = 0
KCH1 180303Z 31005KT 08/04 A3011 RMK A01 T00760042  RH  079%=      5-min Rain = 0
KCH1 180304Z 30005KT 08/04 A3012 RMK A01 T00760042  RH  079%=      5-min Rain = 0
KCH1 180305Z 30005KT 08/04 A3012 RMK A01 T00750042  RH  079%=      5-min Rain = 0
KCH1 180306Z 30005KT 07/04 A3012 RMK A01 T00740041  RH  080%=      5-min Rain = 0
KCH1 180307Z 29005KT 07/04 A3012 RMK A01 T00730041  RH  080%=      5-min Rain = 0
KCH1 180308Z 29004KT 07/04 A3012 RMK A01 T00720041  RH  081%=      5-min Rain = 0
KCH1 180309Z 28004KT 07/04 A3012 RMK A01 T00720041  RH  081%=      5-min Rain = 0
KCH1 180310Z 28004KT 07/04 A3012 RMK A01 T00720042  RH  081%=      5-min Rain = 0
KCH1 180311Z 28005KT 07/04 A3012 RMK A01 T00720042  RH  081%=      5-min Rain = 0
KCH1 180312Z 28005KT 07/04 A3012 RMK A01 T00720041  RH  081%=      5-min Rain = 0
KCH1 180313Z 28005KT 07/04 A3012 RMK A01 T00710041  RH  081%=      5-min Rain = 0
KCH1 180314Z 28004KT 07/04 A3012 RMK A01 T00710041  RH  081%=      5-min Rain = 0
KCH1 180315Z 29004KT 07/04 A3012 RMK A01 T00710041  RH  081%=      5-min Rain = 0
KCH1 180316Z 30004KT 07/04 A3012 RMK A01 T00700040  RH  081%=      5-min Rain = 0
KCH1 180317Z 30003KT 07/04 A3012 RMK A01 T00690040  RH  082%=      5-min Rain = 0
KCH1 180318Z 30004KT 07/04 A3012 RMK A01 T00690040  RH  082%=      5-min Rain = 0
KCH1 180319Z 31003KT 07/04 A3012 RMK A01 T00690040  RH  082%=      5-min Rain = 0
KCH1 180320Z 31004KT 07/04 A3012 RMK A01 T00690040  RH  082%=      5-min Rain = 0
KCH1 180321Z 31004KT 07/04 A3012 RMK A01 T00690039  RH  081%=      5-min Rain = 0
KCH1 180322Z 31003KT 07/04 A3012 RMK A01 T00690039  RH  081%=      5-min Rain = 0
KCH1 180323Z 31004KT 07/04 A3012 RMK A01 T00700039  RH  081%=      5-min Rain = 0
KCH1 180324Z 31004KT 07/04 A3012 RMK A01 T00700038  RH  080%=      5-min Rain = 0
KCH1 180325Z 31004KT 07/04 A3012 RMK A01 T00700038  RH  080%=      5-min Rain = 0
KCH1 180326Z 31004KT 07/04 A3012 RMK A01 T00710038  RH  080%=      5-min Rain = 0
KCH1 180327Z 31004KT 07/04 A3012 RMK A01 T00710037  RH  079%=      5-min Rain = 0
KCH1 180328Z 30005KT 07/04 A3012 RMK A01 T00710037  RH  079%=      5-min Rain = 0
KCH1 180329Z 31005KT 07/04 A3012 RMK A01 T00710037  RH  079%=      5-min Rain = 0
KCH1 180330Z 31004KT 07/04 A3012 RMK A01 T00710036  RH  079%=      5-min Rain = 0
KCH1 180331Z 30003KT 07/04 A3012 RMK A01 T00720037  RH  078%=      5-min Rain = 0
KCH1 180332Z 31003KT 07/04 A3012 RMK A01 T00710037  RH  078%=      5-min Rain = 0
KCH1 180333Z 31004KT 07/04 A3012 RMK A01 T00710037  RH  079%=      5-min Rain = 0
KCH1 180334Z 31003KT 07/04 A3012 RMK A01 T00710037  RH  079%=      5-min Rain = 0
KCH1 180335Z 30004KT 07/04 A3012 RMK A01 T00710038  RH  079%=      5-min Rain = 0
KCH1 180336Z 31004KT 07/04 A3012 RMK A01 T00710038  RH  079%=      5-min Rain = 0
KCH1 180337Z 30004KT 07/04 A3012 RMK A01 T00710038  RH  080%=      5-min Rain = 0
KCH1 180338Z 32003KT 07/04 A3012 RMK A01 T00700038  RH  080%=      5-min Rain = 0
KCH1 180339Z 32002KT 07/04 A3012 RMK A01 T00700036  RH  079%=      5-min Rain = 0
KCH1 180340Z 32003KT 07/03 A3012 RMK A01 T00670032  RH  079%=      5-min Rain = 0
KCH1 180341Z 31003KT 06/03 A3012 RMK A01 T00640033  RH  080%=      5-min Rain = 0
KCH1 180342Z 31004KT 06/04 A3012 RMK A01 T00640035  RH  082%=      5-min Rain = 0
KCH1 180343Z 31003KT 06/04 A3012 RMK A01 T00640037  RH  083%=      5-min Rain = 0
KCH1 180344Z 31002KT 06/04 A3012 RMK A01 T00640037  RH  083%=      5-min Rain = 0
KCH1 180345Z 31002KT 06/04 A3012 RMK A01 T00640037  RH  083%=      5-min Rain = 0
KCH1 180346Z 32002KT 06/04 A3012 RMK A01 T00640036  RH  083%=      5-min Rain = 0
KCH1 180347Z 31002KT 06/03 A3012 RMK A01 T00620034  RH  082%=      5-min Rain = 0
KCH1 180348Z 32002KT 06/03 A3012 RMK A01 T00600032  RH  082%=      5-min Rain = 0
KCH1 180349Z 31001KT 06/03 A3012 RMK A01 T00590033  RH  083%=      5-min Rain = 0
KCH1 180350Z 31002KT 06/04 A3012 RMK A01 T00590036  RH  085%=      5-min Rain = 0
KCH1 180351Z 30001KT 06/04 A3012 RMK A01 T00590037  RH  085%=      5-min Rain = 0
KCH1 180352Z 30000KT 06/04 A3012 RMK A01 T00590036  RH  085%=      5-min Rain = 0
KCH1 180353Z 31001KT 06/03 A3012 RMK A01 T00590034  RH  084%=      5-min Rain = 0
KCH1 180354Z 31001KT 06/03 A3012 RMK A01 T00560029  RH  083%=      5-min Rain = 0
KCH1 180355Z 29001KT 06/03 A3012 RMK A01 T00550032  RH  085%=      5-min Rain = 0
KCH1 180356Z 29001KT 06/04 A3011 RMK A01 T00550036  RH  087%=      5-min Rain = 0
KCH1 180357Z 29001KT 06/04 A3011 RMK A01 T00560038  RH  088%=      5-min Rain = 0
KCH1 180358Z 30002KT 06/04 A3011 RMK A01 T00560037  RH  087%=      5-min Rain = 0
KCH1 180359Z 30002KT 06/04 A3011 RMK A01 T00570037  RH  087%=      5-min Rain = 0
KCH1 180400Z 29002KT 06/04 A3011 RMK A01 T00580039  RH  088%=      5-min Rain = 0
KCH1 180401Z 30002KT 06/04 A3011 RMK A01 T00580040  RH  088%=      5-min Rain = 0
KCH1 180402Z 29003KT 06/04 A3011 RMK A01 T00590041  RH  088%=      5-min Rain = 0
KCH1 180403Z 30003KT 06/04 A3011 RMK A01 T00610042  RH  088%=      5-min Rain = 0
KCH1 180404Z 29002KT 06/04 A3011 RMK A01 T00620041  RH  087%=      5-min Rain = 0
KCH1 180405Z 30002KT 06/04 A3011 RMK A01 T00620040  RH  086%=      5-min Rain = 0
KCH1 180406Z 30003KT 06/04 A3011 RMK A01 T00620039  RH  085%=      5-min Rain = 0
KCH1 180407Z 30003KT 06/04 A3011 RMK A01 T00620039  RH  085%=      5-min Rain = 0
KCH1 180408Z 30003KT 06/04 A3012 RMK A01 T00620038  RH  085%=      5-min Rain = 0
KCH1 180409Z 29004KT 06/04 A3012 RMK A01 T00620038  RH  085%=      5-min Rain = 0
KCH1 180410Z 29004KT 06/04 A3012 RMK A01 T00620038  RH  084%=      5-min Rain = 0
KCH1 180411Z 28004KT 06/04 A3012 RMK A01 T00620037  RH  084%=      5-min Rain = 0
KCH1 180412Z 28005KT 06/04 A3012 RMK A01 T00620038  RH  084%=      5-min Rain = 0
KCH1 180413Z 29005KT 06/04 A3012 RMK A01 T00620038  RH  085%=      5-min Rain = 0
KCH1 180414Z 29005KT 06/04 A3012 RMK A01 T00620038  RH  085%=      5-min Rain = 0
KCH1 180415Z 29004KT 06/04 A3012 RMK A01 T00620038  RH  084%=      5-min Rain = 0
KCH1 180416Z 30005KT 06/04 A3012 RMK A01 T00630038  RH  084%=      5-min Rain = 0
KCH1 180417Z 30005KT 06/04 A3012 RMK A01 T00630038  RH  084%=      5-min Rain = 0
KCH1 180418Z 31005KT 06/04 A3012 RMK A01 T00630038  RH  084%=      5-min Rain = 0
KCH1 180419Z 31005KT 06/04 A3012 RMK A01 T00640039  RH  085%=      5-min Rain = 0
KCH1 180420Z 32005KT 06/04 A3012 RMK A01 T00640039  RH  084%=      5-min Rain = 0
KCH1 180421Z 31005KT 06/04 A3011 RMK A01 T00640039  RH  084%=      5-min Rain = 0
KCH1 180422Z 31006KT 06/04 A3011 RMK A01 T00640040  RH  084%=      5-min Rain = 0
KCH1 180423Z 31007KT 06/04 A3012 RMK A01 T00640040  RH  084%=      5-min Rain = 0
KCH1 180424Z 31006KT 06/04 A3012 RMK A01 T00640039  RH  084%=      5-min Rain = 0
KCH1 180425Z 31007KT 06/04 A3012 RMK A01 T00640039  RH  084%=      5-min Rain = 0
KCH1 180426Z 30007KT 06/04 A3012 RMK A01 T00640039  RH  084%=      5-min Rain = 0
KCH1 180427Z 30006KT 06/04 A3012 RMK A01 T00640039  RH  084%=      5-min Rain = 0
KCH1 180428Z 30005KT 07/04 A3012 RMK A01 T00650040  RH  084%=      5-min Rain = 0
KCH1 180429Z 31005KT 07/04 A3011 RMK A01 T00650039  RH  084%=      5-min Rain = 0
KCH1 180430Z 31005KT 07/04 A3011 RMK A01 T00650039  RH  084%=      5-min Rain = 0
KCH1 180431Z 31004KT 06/04 A3011 RMK A01 T00640039  RH  084%=      5-min Rain = 0
KCH1 180432Z 32004KT 06/04 A3011 RMK A01 T00640039  RH  084%=      5-min Rain = 0
KCH1 180433Z 33002KT 06/03 A3011 RMK A01 T00610031  RH  081%=      5-min Rain = 0
KCH1 180434Z 33003KT 06/02 A3011 RMK A01 T00550023  RH  080%=      5-min Rain = 0
KCH1 180435Z 32004KT 05/02 A3011 RMK A01 T00490021  RH  082%=      5-min Rain = 0
KCH1 180436Z 32003KT 05/02 A3011 RMK A01 T00460022  RH  084%=      5-min Rain = 0
KCH1 180437Z 33003KT 04/02 A3011 RMK A01 T00440021  RH  085%=      5-min Rain = 0
KCH1 180438Z 32003KT 04/02 A3011 RMK A01 T00420022  RH  087%=      5-min Rain = 0
KCH1 180439Z 32002KT 04/02 A3011 RMK A01 T00420024  RH  088%=      5-min Rain = 0
KCH1 180440Z 33002KT 04/03 A3011 RMK A01 T00420027  RH  090%=      5-min Rain = 0
KCH1 180441Z 33002KT 04/03 A3011 RMK A01 T00440030  RH  091%=      5-min Rain = 0
KCH1 180442Z 33003KT 04/03 A3011 RMK A01 T00440031  RH  091%=      5-min Rain = 0
KCH1 180443Z 32003KT 05/03 A3011 RMK A01 T00450032  RH  091%=      5-min Rain = 0
KCH1 180444Z 33002KT 05/03 A3011 RMK A01 T00460032  RH  091%=      5-min Rain = 0
KCH1 180445Z 33003KT 05/03 A3011 RMK A01 T00460032  RH  090%=      5-min Rain = 0
KCH1 180446Z 33003KT 05/03 A3011 RMK A01 T00460031  RH  090%=      5-min Rain = 0
KCH1 180447Z 33003KT 05/03 A3011 RMK A01 T00460030  RH  089%=      5-min Rain = 0
KCH1 180448Z 34003KT 05/03 A3011 RMK A01 T00460029  RH  089%=      5-min Rain = 0
KCH1 180449Z 34004KT 05/03 A301 RMK A01 T00450027  RH  089%=      5-min Rain = 0
KCH1 180450Z 35003KT 05/03 A301 RMK A01 T00450028  RH  089%=      5-min Rain = 0
KCH1 180451Z 34003KT 05/03 A301 RMK A01 T00450028  RH  089%=      5-min Rain = 0
KCH1 180452Z 34003KT 05/03 A3011 RMK A01 T00450028  RH  089%=      5-min Rain = 0
KCH1 180453Z 33003KT 04/03 A3011 RMK A01 T00440026  RH  088%=      5-min Rain = 0
KCH1 180454Z 33003KT 04/03 A3011 RMK A01 T00440026  RH  088%=      5-min Rain = 0
KCH1 180455Z 32003KT 04/03 A3011 RMK A01 T00440026  RH  088%=      5-min Rain = 0
KCH1 180456Z 32002KT 05/03 A301 RMK A01 T00450027  RH  088%=      5-min Rain = 0
KCH1 180457Z 32002KT 05/03 A301 RMK A01 T00450027  RH  088%=      5-min Rain = 0
KCH1 180458Z 32002KT 05/03 A301 RMK A01 T00450026  RH  088%=      5-min Rain = 0
KCH1 180459Z 32002KT 05/03 A301 RMK A01 T00450026  RH  087%=      5-min Rain = 0
KCH1 180500Z 32002KT 05/03 A301 RMK A01 T00450026  RH  087%=      5-min Rain = 0
KCH1 180501Z 31002KT 05/03 A301 RMK A01 T00460026  RH  087%=      5-min Rain = 0
KCH1 180502Z 32002KT 05/03 A301 RMK A01 T00470028  RH  087%=      5-min Rain = 0
KCH1 180503Z 31002KT 05/03 A301 RMK A01 T00480028  RH  087%=      5-min Rain = 0
KCH1 180504Z 32002KT 05/03 A301 RMK A01 T00490029  RH  087%=      5-min Rain = 0
KCH1 180505Z 33002KT 05/03 A301 RMK A01 T00500028  RH  086%=      5-min Rain = 0
KCH1 180506Z 33003KT 05/03 A301 RMK A01 T00490025  RH  085%=      5-min Rain = 0
KCH1 180507Z 33003KT 05/02 A301 RMK A01 T00470023  RH  084%=      5-min Rain = 0
KCH1 180508Z 33003KT 05/02 A301 RMK A01 T00450021  RH  084%=      5-min Rain = 0
KCH1 180509Z 32003KT 04/02 A301 RMK A01 T00440022  RH  085%=      5-min Rain = 0
KCH1 180510Z 32002KT 04/02 A301 RMK A01 T00440023  RH  086%=      5-min Rain = 0
KCH1 180511Z 32001KT 04/02 A301 RMK A01 T00440023  RH  086%=      5-min Rain = 0
KCH1 180512Z 32001KT 04/02 A301 RMK A01 T00440022  RH  086%=      5-min Rain = 0
KCH1 180513Z 32001KT 04/02 A301 RMK A01 T00430021  RH  086%=      5-min Rain = 0
KCH1 180514Z 31001KT 04/02 A301 RMK A01 T00420022  RH  086%=      5-min Rain = 0
KCH1 180515Z 31001KT 04/02 A301 RMK A01 T00420023  RH  087%=      5-min Rain = 0
KCH1 180516Z 30001KT 04/02 A301 RMK A01 T00420023  RH  088%=      5-min Rain = 0
KCH1 180517Z 29002KT 04/02 A301 RMK A01 T00430024  RH  088%=      5-min Rain = 0
KCH1 180518Z 29002KT 04/02 A301 RMK A01 T00430024  RH  087%=      5-min Rain = 0
KCH1 180519Z 29002KT 04/02 A3009 RMK A01 T00430024  RH  087%=      5-min Rain = 0
KCH1 180520Z 30002KT 04/02 A3009 RMK A01 T00430024  RH  087%=      5-min Rain = 0
KCH1 180521Z 31003KT 04/03 A3009 RMK A01 T00440025  RH  087%=      5-min Rain = 0
KCH1 180522Z 31003KT 05/03 A3009 RMK A01 T00450026  RH  088%=      5-min Rain = 0
KCH1 180523Z 31003KT 05/03 A3009 RMK A01 T00460028  RH  088%=      5-min Rain = 0
KCH1 180524Z 31003KT 05/03 A3009 RMK A01 T00480029  RH  088%=      5-min Rain = 0
KCH1 180525Z 31003KT 05/03 A3009 RMK A01 T00490030  RH  088%=      5-min Rain = 0
KCH1 180526Z 31003KT 05/03 A3009 RMK A01 T00500030  RH  087%=      5-min Rain = 0
KCH1 180527Z 31003KT 05/03 A3009 RMK A01 T00500030  RH  087%=      5-min Rain = 0
KCH1 180528Z 31003KT 05/03 A3009 RMK A01 T00500030  RH  087%=      5-min Rain = 0
KCH1 180529Z 31003KT 05/03 A3009 RMK A01 T00510031  RH  087%=      5-min Rain = 0
KCH1 180530Z 31003KT 05/03 A3009 RMK A01 T00510031  RH  087%=      5-min Rain = 0
KCH1 180531Z 30004KT 05/03 A3009 RMK A01 T00520031  RH  087%=      5-min Rain = 0
KCH1 180532Z 30004KT 05/03 A3009 RMK A01 T00520031  RH  086%=      5-min Rain = 0
KCH1 180533Z 30004KT 05/03 A3009 RMK A01 T00520031  RH  086%=      5-min Rain = 0
KCH1 180534Z 30004KT 05/03 A3009 RMK A01 T00520031  RH  087%=      5-min Rain = 0
KCH1 180535Z 31003KT 05/03 A3009 RMK A01 T00520032  RH  087%=      5-min Rain = 0
KCH1 180536Z 31003KT 05/03 A3009 RMK A01 T00520033  RH  088%=      5-min Rain = 0
KCH1 180537Z 30002KT 05/03 A3009 RMK A01 T00520033  RH  088%=      5-min Rain = 0
KCH1 180538Z 30002KT 05/03 A3009 RMK A01 T00520033  RH  088%=      5-min Rain = 0
KCH1 180539Z 29002KT 05/03 A3009 RMK A01 T00520034  RH  088%=      5-min Rain = 0
KCH1 180540Z 29003KT 05/03 A3009 RMK A01 T00520033  RH  088%=      5-min Rain = 0
KCH1 180541Z 29003KT 05/03 A3009 RMK A01 T00520034  RH  088%=      5-min Rain = 0
KCH1 180542Z 29003KT 05/04 A3009 RMK A01 T00520035  RH  089%=      5-min Rain = 0
KCH1 180543Z 30003KT 05/04 A3009 RMK A01 T00520035  RH  089%=      5-min Rain = 0
KCH1 180544Z 31002KT 05/03 A3009 RMK A01 T00520033  RH  088%=      5-min Rain = 0
KCH1 180545Z 32002KT 05/02 A3009 RMK A01 T00470021  RH  084%=      5-min Rain = 0
KCH1 180546Z 33002KT 04/01 A3009 RMK A01 T00400013  RH  083%=      5-min Rain = 0
KCH1 180547Z 33002KT 04/01 A3009 RMK A01 T00350011  RH  084%=      5-min Rain = 0
KCH1 180548Z 32002KT 03/01 A3009 RMK A01 T00330011  RH  086%=      5-min Rain = 0
KCH1 180549Z 31001KT 03/01 A3009 RMK A01 T00310011  RH  087%=      5-min Rain = 0
KCH1 180550Z 30001KT 03/01 A3009 RMK A01 T00300013  RH  089%=      5-min Rain = 0
KCH1 180551Z 30001KT 03/01 A3009 RMK A01 T00290013  RH  089%=      5-min Rain = 0
KCH1 180552Z 30002KT 03/01 A3009 RMK A01 T00290014  RH  090%=      5-min Rain = 0
KCH1 180553Z 30001KT 03/02 A3009 RMK A01 T00290015  RH  091%=      5-min Rain = 0
KCH1 180554Z 30001KT 03/02 A3009 RMK A01 T00290017  RH  092%=      5-min Rain = 0
KCH1 180555Z 31001KT 03/02 A3009 RMK A01 T00310021  RH  093%=      5-min Rain = 0
KCH1 180556Z 31001KT 03/02 A3009 RMK A01 T00320022  RH  094%=      5-min Rain = 0
KCH1 180557Z 30001KT 03/02 A3009 RMK A01 T00320022  RH  093%=      5-min Rain = 0
KCH1 180558Z 30001KT 03/02 A3009 RMK A01 T00320022  RH  093%=      5-min Rain = 0
KCH1 180559Z 30002KT 03/02 A3009 RMK A01 T00320021  RH  093%=      5-min Rain = 0

Page generated in 0.0947 seconds.